Data for 08/08/2012

Time Sea-Level Adjusted Pressure Absolute Pressure Temperature Relative Humidity Dew Point Precipitation   
(mb) (inHg) (mb) (inHg) (C) (F) (%) (C) (F) (mm) (in)
00:01 1026 30.3 855 25.25 14.8 58.6 50 4.4 39.9 0 0
00:02 1026 30.3 855 25.25 14.9 58.7 49 4.3 39.8 0 0
00:03 1026 30.3 855 25.25 14.9 58.7 49 4.4 39.9 0 0
00:04 1026 30.3 855 25.25 14.9 58.8 49 4.4 40 0 0
00:05 1026 30.3 855 25.25 14.8 58.7 49 4.3 39.8 0 0
00:06 1026 30.3 855 25.25 14.9 58.7 49 4.4 39.9 0 0
00:07 1026 30.3 855 25.25 14.9 58.8 49 4.3 39.7 0 0
00:08 1026 30.3 855 25.25 15 59 48 4.2 39.6 0 0
00:09 1026 30.3 855 25.25 15 59 48 4.3 39.8 0 0
00:10 1026 30.3 855 25.25 15 58.9 49 4.4 39.9 0 0
00:11 1026 30.3 855 25.25 15 58.9 49 4.3 39.8 0 0
00:12 1026 30.3 855 25.25 15 58.9 49 4.3 39.7 0 0
00:13 1026 30.3 855 25.25 15 58.9 48 4.2 39.5 0 0
00:14 1026 30.3 855 25.25 15 59.1 48 4.2 39.5 0 0
00:15 1026 30.3 855 25.25 15.1 59.2 47 4.1 39.3 0 0
00:16 1026 30.3 855 25.25 15.2 59.4 47 4.1 39.4 0 0
00:17 1026 30.3 855 25.25 15.3 59.5 47 4 39.2 0 0
00:18 1026 30.3 855 25.25 15.4 59.7 45 3.7 38.7 0 0
00:19 1026 30.3 855 25.25 15.6 60.1 45 3.7 38.6 0 0
00:20 1026 30.3 855 25.25 15.8 60.4 44 3.6 38.5 0 0
00:21 1026 30.3 855 25.25 15.9 60.7 43 3.5 38.3 0 0
00:22 1026 30.3 855 25.25 16.2 61.1 42 3.4 38.2 0 0
00:23 1026 30.3 855 25.25 16.4 61.5 42 3.5 38.2 0 0
00:24 1026 30.3 855 25.25 16.5 61.8 42 3.7 38.6 0 0
00:25 1026 30.3 855 25.25 16.5 61.8 42 3.7 38.7 0 0
00:26 1026 30.3 855 25.25 16.5 61.7 42 3.6 38.4 0 0
00:27 1026 30.3 855 25.25 16.6 61.8 42 3.8 38.9 0 0
00:28 1026 30.3 855 25.25 16.4 61.6 43 4 39.3 0 0
00:29 1026 30.3 855 25.25 16.2 61.2 43 3.8 38.9 0 0
00:30 1026 30.3 855 25.25 16.2 61.1 43 3.8 38.8 0 0
00:31 1026 30.3 855 25.25 16.1 61.1 44 3.8 38.9 0 0
00:32 1026 30.3 855 25.25 16.1 60.9 44 3.8 38.9 0 0
00:33 1026 30.3 855 25.25 16.1 61 44 3.8 38.9 0 0
00:34 1026 30.3 855 25.25 16 60.8 44 3.9 39.1 0 0
00:35 1026 30.3 855 25.25 15.9 60.5 45 4 39.1 0 0
00:36 1026 30.3 855 25.25 15.7 60.3 46 4.1 39.4 0 0
00:37 1026 30.3 855 25.25 15.5 59.9 46 4.1 39.5 0 0
00:38 1026 30.3 855 25.25 15.3 59.5 47 4 39.2 0 0
00:39 1026 30.3 855 25.25 15.2 59.3 46 3.8 38.9 0 0
00:40 1026 30.3 855 25.25 15.2 59.3 46 3.8 38.9 0 0
00:41 1026 30.3 855 25.25 15.2 59.3 46 3.8 38.9 0 0
00:42 1026 30.3 855 25.25 15.2 59.3 46 3.8 38.8 0 0
00:43 1026 30.3 855 25.25 15.2 59.3 47 3.9 39 0 0
00:44 1026 30.3 855 25.25 15.1 59.1 47 3.8 38.8 0 0
00:45 1026 30.3 855 25.25 15.1 59.1 47 3.9 39.1 0 0
00:46 1026 30.3 855 25.25 15 59 47 3.9 39.1 0 0
00:47 1026 30.3 855 25.25 14.9 58.8 48 4 39.3 0 0
00:48 1026 30.3 855 25.25 14.8 58.7 48 4 39.2 0 0
00:49 1026 30.3 855 25.25 14.8 58.6 48 4 39.2 0 0
00:50 1026 30.3 855 25.25 14.7 58.5 48 3.9 39.1 0 0
00:51 1026 30.3 855 25.25 14.7 58.5 48 4 39.2 0 0
00:52 1026 30.3 855 25.25 14.7 58.4 48 3.8 38.9 0 0
00:53 1026 30.3 855 25.25 14.7 58.5 48 3.9 39 0 0
00:54 1026 30.3 855 25.25 14.7 58.5 48 3.9 39 0 0
00:55 1026 30.3 855 25.25 14.7 58.4 48 3.9 39 0 0
00:56 1026 30.3 855 25.25 14.7 58.4 48 3.9 38.9 0 0
00:57 1026 30.3 855 25.25 14.7 58.4 48 3.9 39.1 0 0
00:58 1026 30.3 855 25.25 14.6 58.3 49 4 39.2 0 0
00:59 1026 30.3 855 25.25 14.6 58.2 48 3.9 39 0 0
01:00 1026 30.3 855 25.25 14.5 58 49 3.9 39 0 0
01:01 1026 30.3 855 25.25 14.5 58.1 49 3.9 39 0 0
01:02 1026 30.3 855 25.25 14.5 58.1 49 4 39.1 0 0
01:03 1026 30.3 855 25.25 14.4 58 49 3.9 39 0 0
01:04 1026 30.3 855 25.25 14.5 58 48 3.6 38.4 0 0
01:05 1026 30.3 855 25.25 14.8 58.6 47 3.5 38.3 0 0
01:06 1026 30.3 855 25.25 15 59 45 3.4 38.1 0 0
01:07 1026 30.3 855 25.25 15.3 59.5 45 3.4 38.2 0 0
01:08 1026 30.3 855 25.25 15.5 59.9 43 3.1 37.6 0 0
01:09 1026 30.3 855 25.25 15.8 60.5 42 3 37.3 0 0
01:10 1026 30.3 855 25.25 16 60.9 42 3.3 37.9 0 0
01:11 1026 30.3 855 25.25 16.2 61.1 41 3 37.3 0 0
01:12 1026 30.3 855 25.25 16.4 61.5 38 2.2 36 0 0
01:13 1026 30.3 855 25.25 16.8 62.2 37 2 35.6 0 0
01:14 1026 30.3 855 25.25 17.1 62.8 36 1.9 35.5 0 0
01:15 1026 30.3 855 25.25 17.3 63.1 36 2 35.7 0 0
01:16 1026 30.3 855 25.25 17.3 63.2 36 2.3 36.1 0 0
01:17 1026 30.3 855 25.25 17.2 63 39 3.1 37.7 0 0
01:18 1026 30.3 855 25.25 16.9 62.5 40 3.5 38.2 0 0
01:19 1026 30.3 855 25.25 16.6 61.9 42 3.6 38.5 0 0
01:20 1026 30.3 855 25.25 16.3 61.3 43 3.9 39.1 0 0
01:21 1026 30.3 855 25.25 15.9 60.6 44 3.9 38.9 0 0
01:22 1026 30.3 855 25.25 15.6 60.2 43 3.2 37.8 0 0
01:23 1026 30.3 855 25.25 15.8 60.4 42 3.1 37.6 0 0
01:24 1026 30.3 855 25.25 16 60.7 42 3.1 37.5 0 0
01:25 1026 30.3 855 25.25 16 60.9 42 3.3 38 0 0
01:26 1026 30.3 855 25.25 16 60.7 43 3.4 38.2 0 0
01:27 1026 30.3 855 25.25 15.8 60.5 43 3.4 38.1 0 0
01:28 1026 30.3 855 25.25 15.7 60.3 43 3.4 38.1 0 0
01:29 1026 30.3 855 25.25 15.7 60.2 43 3.1 37.5 0 0
01:30 1026 30.3 855 25.25 15.6 60.1 44 3.4 38.2 0 0
01:31 1026 30.3 855 25.25 15.5 59.9 44 3.5 38.3 0 0
01:32 1026 30.3 855 25.25 15.4 59.8 44 3.4 38.1 0 0
01:33 1026 30.3 855 25.25 15.3 59.6 45 3.6 38.5 0 0
01:34 1026 30.3 855 25.25 15.2 59.3 45 3.6 38.4 0 0
01:35 1026 30.3 855 25.25 15 59.1 46 3.6 38.6 0 0
01:36 1026 30.3 855 25.25 14.9 58.7 47 3.7 38.6 0 0
01:37 1026 30.3 855 25.25 14.7 58.4 48 3.7 38.7 0 0
01:38 1026 30.3 855 25.25 14.5 58 48 3.8 38.8 0 0
01:39 1026 30.3 855 25.25 14.3 57.7 49 3.9 39.1 0 0
01:40 1026 30.3 855 25.25 14.1 57.4 51 4.1 39.4 0 0
01:41 1026 30.3 855 25.25 13.9 57 51 4 39.3 0 0
01:42 1026 30.3 855 25.25 13.7 56.7 52 4.2 39.5 0 0
01:43 1026 30.3 855 25.25 13.5 56.3 52 3.8 38.9 0 0
01:44 1026 30.3 855 25.25 13.5 56.3 52 3.9 39 0 0
01:45 1026 30.3 855 25.25 13.5 56.3 51 3.5 38.3 0 0
01:46 1026 30.3 855 25.25 13.5 56.3 50 3.4 38.2 0 0
01:47 1026 30.3 855 25.25 13.5 56.4 49 3 37.5 0 0
01:48 1026 30.3 855 25.25 13.7 56.7 49 3.1 37.7 0 0
01:49 1026 30.3 855 25.25 13.8 56.8 49 3.4 38.1 0 0
01:50 1026 30.3 855 25.25 13.8 56.8 50 3.5 38.3 0 0
01:51 1026 30.3 855 25.25 13.7 56.7 50 3.6 38.4 0 0
01:52 1026 30.3 855 25.25 13.7 56.6 50 3.7 38.6 0 0
01:53 1026 30.3 855 25.25 13.6 56.5 50 3.6 38.5 0 0
01:54 1026 30.3 855 25.25 13.6 56.5 50 3.5 38.3 0 0
01:55 1026 30.3 855 25.25 13.7 56.7 50 3.6 38.6 0 0
01:56 1026 30.3 855 25.25 13.7 56.7 50 3.4 38.2 0 0
01:57 1026 30.3 855 25.25 13.7 56.7 49 3.4 38.1 0 0
01:58 1026 30.3 855 25.25 13.8 56.8 49 3.3 37.9 0 0
01:59 1026 30.3 855 25.25 13.9 57.1 49 3.4 38.1 0 0
02:00 1026 30.3 855 25.25 13.9 57.1 49 3.6 38.5 0 0
02:01 1026 30.3 855 25.25 13.8 56.9 49 3.5 38.3 0 0
02:02 1026 30.3 855 25.25 13.8 56.9 49 3.2 37.8 0 0
02:03 1026 30.3 855 25.25 14 57.2 47 3.1 37.6 0 0
02:04 1026 30.3 855 25.25 14.4 57.9 46 2.9 37.3 0 0
02:05 1026 30.3 855 25.25 14.8 58.6 44 2.8 37.1 0 0
02:06 1026 30.3 855 25.25 15.1 59.2 43 2.6 36.6 0 0
02:07 1026 30.3 855 25.25 15.5 59.9 42 2.7 36.9 0 0
02:08 1026 30.3 855 25.25 15.7 60.2 41 2.7 36.8 0 0
02:09 1026 30.3 855 25.25 15.8 60.4 42 3.1 37.6 0 0
02:10 1026 30.3 855 25.25 15.6 60.2 44 3.4 38.1 0 0
02:11 1026 30.3 855 25.25 15.4 59.7 44 3.2 37.7 0 0
02:12 1026 30.3 855 25.25 15.3 59.5 45 3.4 38.2 0 0
02:13 1026 30.3 855 25.25 15 59.1 45 3.2 37.8 0 0
02:14 1026 30.3 855 25.25 14.9 58.8 44 2.9 37.2 0 0
02:15 1026 30.3 855 25.25 15.1 59.1 43 2.8 37.1 0 0
02:16 1026 30.3 855 25.25 15.2 59.3 43 2.8 37 0 0
02:17 1026 30.3 855 25.25 15.3 59.5 43 2.8 37 0 0
02:18 1026 30.3 855 25.25 15.3 59.6 42 2.7 36.9 0 0
02:19 1026 30.3 855 25.25 15.4 59.8 44 3.2 37.7 0 0
02:20 1026 30.3 855 25.25 15.3 59.5 44 3.3 37.9 0 0
02:21 1026 30.3 855 25.25 15.1 59.1 45 3.4 38.1 0 0
02:22 1026 30.3 855 25.25 14.9 58.8 44 3 37.4 0 0
02:23 1026 30.3 855 25.25 14.9 58.8 44 2.9 37.3 0 0
02:24 1026 30.3 855 25.25 14.8 58.7 45 3 37.4 0 0
02:25 1025 30.27 855 25.25 14.8 58.6 45 3.1 37.5 0 0
02:26 1026 30.3 855 25.25 14.8 58.6 44 2.9 37.2 0 0
02:27 1025 30.27 855 25.25 14.7 58.5 45 3.1 37.5 0 0
02:28 1025 30.27 855 25.25 14.5 58.2 46 3.2 37.8 0 0
02:29 1025 30.27 855 25.25 14.3 57.8 48 3.4 38.2 0 0
02:30 1025 30.27 855 25.25 14.1 57.4 49 3.7 38.7 0 0
02:31 1025 30.27 855 25.25 13.8 56.9 50 3.7 38.7 0 0
02:32 1025 30.27 855 25.25 13.6 56.5 50 3.4 38.1 0 0
02:33 1025 30.27 855 25.25 13.6 56.4 49 3.2 37.8 0 0
02:34 1025 30.27 855 25.25 13.7 56.6 49 3.1 37.6 0 0
02:35 1025 30.27 855 25.25 13.8 56.8 48 3.1 37.5 0 0
02:36 1025 30.27 855 25.25 13.9 57.1 48 3.1 37.6 0 0
02:37 1025 30.27 855 25.25 14 57.2 47 3.1 37.5 0 0
02:38 1025 30.27 855 25.25 14 57.2 48 3.2 37.7 0 0
02:39 1025 30.27 855 25.25 14 57.2 47 3 37.4 0 0
02:40 1025 30.27 855 25.25 14 57.3 47 3.1 37.6 0 0
02:41 1025 30.27 855 25.25 14 57.2 48 3.1 37.6 0 0
02:42 1025 30.27 855 25.25 14 57.3 47 3 37.4 0 0
02:43 1025 30.27 855 25.25 14 57.3 47 3 37.4 0 0
02:44 1025 30.27 855 25.25 14 57.3 47 2.9 37.3 0 0
02:45 1025 30.27 855 25.25 14.1 57.4 47 3 37.4 0 0
02:46 1025 30.27 855 25.25 14.1 57.4 46 2.9 37.2 0 0
02:47 1025 30.27 855 25.25 14.2 57.5 46 3 37.3 0 0
02:48 1025 30.27 855 25.25 14.2 57.5 47 3 37.4 0 0
02:49 1025 30.27 855 25.25 14.2 57.5 47 3 37.4 0 0
02:50 1025 30.27 855 25.25 14.2 57.5 47 3 37.5 0 0
02:51 1025 30.27 855 25.25 14.1 57.4 47 3.1 37.5 0 0
02:52 1025 30.27 855 25.25 14.1 57.3 47 2.9 37.3 0 0
02:53 1025 30.27 855 25.25 14.1 57.3 47 2.9 37.2 0 0
02:54 1025 30.27 855 25.25 14.1 57.4 46 2.7 36.9 0 0
02:55 1025 30.27 855 25.25 14.2 57.6 46 2.9 37.2 0 0
02:56 1025 30.27 855 25.25 14.3 57.7 45 2.7 36.9 0 0
02:57 1025 30.27 855 25.25 14.5 58.1 44 2.6 36.7 0 0
02:58 1025 30.27 855 25.25 14.6 58.2 43 2.3 36.2 0 0
02:59 1025 30.27 855 25.25 14.7 58.4 44 2.7 36.9 0 0
03:00 1025 30.27 855 25.25 14.6 58.3 45 2.8 37.1 0 0
03:01 1025 30.27 855 25.25 14.6 58.3 45 2.8 37 0 0
03:02 1025 30.27 855 25.25 14.5 58.2 45 2.8 37.1 0 0
03:03 1025 30.27 855 25.25 14.5 58.1 45 2.7 36.9 0 0
03:04 1025 30.27 855 25.25 14.5 58.1 45 2.9 37.2 0 0
03:05 1025 30.27 855 25.25 14.5 58 45 2.8 37.1 0 0
03:06 1025 30.27 855 25.25 14.5 58.1 45 2.9 37.2 0 0
03:07 1025 30.27 855 25.25 14.5 58.1 44 2.4 36.3 0 0
03:08 1025 30.27 855 25.25 14.8 58.6 41 1.8 35.3 0 0
03:09 1025 30.27 855 25.25 15.3 59.5 40 1.7 35 0 0
03:10 1025 30.27 855 25.25 15.7 60.2 38 1.5 34.7 0 0
03:11 1025 30.27 855 25.25 16.1 61 36 1.2 34.2 0 0
03:12 1025 30.27 855 25.25 16.4 61.5 36 1.2 34.2 0 0
03:13 1025 30.27 855 25.25 16.6 61.9 35 1.4 34.4 0 0
03:14 1025 30.27 855 25.25 16.8 62.3 34 1.1 34 0 0
03:15 1025 30.27 855 25.25 17 62.7 33 0.9 33.7 0 0
03:16 1025 30.27 855 25.25 17.1 62.8 34 1.2 34.1 0 0
03:17 1025 30.27 855 25.25 17.2 62.9 33 0.9 33.7 0 0
03:18 1025 30.27 855 25.25 17.3 63.2 33 1.1 33.9 0 0
03:19 1025 30.27 855 25.25 17.4 63.2 34 1.5 34.7 0 0
03:20 1025 30.27 855 25.25 17.1 62.8 36 2.2 36 0 0
03:21 1025 30.27 855 25.25 16.7 62.1 38 2.4 36.2 0 0
03:22 1025 30.27 855 25.25 16.3 61.4 39 2.6 36.6 0 0
03:23 1025 30.27 855 25.25 15.9 60.7 40 2.6 36.7 0 0
03:24 1025 30.27 855 25.25 15.6 60 42 2.8 37 0 0
03:25 1025 30.27 855 25.25 15.1 59.3 42 2.6 36.6 0 0
03:26 1025 30.27 855 25.25 14.9 58.8 43 2.7 36.8 0 0
03:27 1025 30.27 855 25.25 14.7 58.4 44 2.7 36.8 0 0
03:28 1025 30.27 855 25.25 14.5 58.1 43 2.2 35.9 0 0
03:29 1025 30.27 855 25.25 14.6 58.2 43 2.2 36 0 0
03:30 1025 30.27 855 25.25 14.6 58.2 43 2.2 35.9 0 0
03:31 1025 30.27 855 25.25 14.6 58.3 43 2.3 36.2 0 0
03:32 1025 30.27 855 25.25 14.6 58.3 42 1.8 35.3 0 0
03:33 1025 30.27 855 25.25 14.7 58.4 41 1.6 34.9 0 0
03:34 1025 30.27 855 25.25 14.9 58.8 40 1.7 35 0 0
03:35 1025 30.27 855 25.25 15 59 40 1.8 35.2 0 0
03:36 1025 30.27 855 25.25 15 58.9 42 2.1 35.7 0 0
03:37 1025 30.27 855 25.25 14.8 58.6 41 1.9 35.4 0 0
03:38 1025 30.27 855 25.25 14.7 58.4 42 2 35.6 0 0
03:39 1025 30.27 855 25.25 14.6 58.3 42 1.8 35.3 0 0
03:40 1025 30.27 855 25.25 14.7 58.4 41 1.7 35 0 0
03:41 1025 30.27 855 25.25 14.8 58.7 40 1.4 34.6 0 0
03:42 1025 30.27 855 25.25 15 59.1 39 1.4 34.6 0 0
03:43 1025 30.27 855 25.25 15.2 59.4 39 1.3 34.3 0 0
03:44 1025 30.27 855 25.25 15.4 59.7 38 1.2 34.1 0 0
03:45 1025 30.27 855 25.25 15.7 60.2 37 1.1 33.9 0 0
03:46 1025 30.27 855 25.25 15.9 60.6 36 1.1 33.9 0 0
03:47 1025 30.27 855 25.25 16.2 61.1 34 0.5 32.9 0 0
03:48 1025 30.27 855 25.25 16.5 61.8 33 0.4 32.8 0 0
03:49 1025 30.27 855 25.25 16.8 62.3 33 0.7 33.2 0 0
03:50 1025 30.27 855 25.25 17 62.6 33 0.9 33.6 0 0
03:51 1025 30.27 855 25.25 17 62.5 34 1 33.8 0 0
03:52 1025 30.27 855 25.25 16.8 62.3 35 1.2 34.2 0 0
03:53 1025 30.27 855 25.25 16.7 62 35 1.4 34.6 0 0
03:54 1025 30.27 855 25.25 16.6 61.8 35 1.3 34.3 0 0
03:55 1025 30.27 855 25.25 16.5 61.7 36 1.3 34.4 0 0
03:56 1025 30.27 855 25.25 16.5 61.7 34 0.8 33.5 0 0
03:57 1025 30.27 855 25.25 16.7 62.1 34 0.9 33.7 0 0
03:58 1025 30.27 855 25.25 16.9 62.4 34 1 33.9 0 0
03:59 1025 30.27 855 25.25 16.9 62.4 34 1 33.9 0 0
04:00 1025 30.27 855 25.25 16.9 62.4 34 1 33.8 0 0
04:01 1025 30.27 855 25.25 17 62.5 33 0.7 33.3 0 0
04:02 1025 30.27 855 25.25 17.1 62.9 33 0.8 33.4 0 0
04:03 1025 30.27 855 25.25 17.2 63 33 0.8 33.5 0 0
04:04 1025 30.27 855 25.25 17.3 63.1 33 1 33.8 0 0
04:05 1025 30.27 855 25.25 17.2 63 33 1 33.9 0 0
04:06 1025 30.27 855 25.25 17.1 62.8 34 1.3 34.4 0 0
04:07 1025 30.27 855 25.25 17 62.6 35 1.6 34.8 0 0
04:08 1025 30.27 855 25.25 16.8 62.2 36 1.8 35.2 0 0
04:09 1025 30.27 855 25.25 16.5 61.8 37 2 35.5 0 0
04:10 1025 30.27 855 25.25 16.3 61.4 37 1.8 35.2 0 0
04:11 1025 30.27 855 25.25 16.2 61.2 37 1.8 35.2 0 0
04:12 1025 30.27 855 25.25 16.1 61 37 1.5 34.8 0 0
04:13 1025 30.27 855 25.25 16.1 60.9 37 1.6 35 0 0
04:14 1025 30.27 855 25.25 16 60.7 37 1.5 34.7 0 0
04:15 1025 30.27 855 25.25 16 60.7 38 1.6 34.9 0 0
04:16 1025 30.27 855 25.25 15.9 60.6 37 1.4 34.5 0 0
04:17 1025 30.27 855 25.25 15.9 60.6 37 1.5 34.7 0 0
04:18 1025 30.27 855 25.25 15.9 60.6 37 1.5 34.7 0 0
04:19 1025 30.27 855 25.25 15.9 60.6 37 1.4 34.5 0 0
04:20 1025 30.27 855 25.25 15.9 60.5 37 1.3 34.3 0 0
04:21 1025 30.27 855 25.25 15.9 60.6 36 1.1 33.9 0 0
04:22 1025 30.27 855 25.25 16.1 60.9 36 1.2 34.1 0 0
04:23 1025 30.27 855 25.25 16.2 61.2 36 1.3 34.3 0 0
04:24 1025 30.27 855 25.25 16.2 61.2 36 1.4 34.5 0 0
04:25 1025 30.27 855 25.25 16.2 61.2 36 1.4 34.4 0 0
04:26 1025 30.27 855 25.25 16.2 61.2 36 1.3 34.3 0 0
04:27 1025 30.27 855 25.25 16.2 61.2 36 1.4 34.5 0 0
04:28 1025 30.27 855 25.25 16.2 61.2 37 1.5 34.7 0 0
04:29 1025 30.27 855 25.25 16.2 61.1 37 1.6 34.9 0 0
04:30 1025 30.27 855 25.25 16 60.8 38 1.7 35.1 0 0
04:31 1026 30.3 855 25.25 15.9 60.5 38 1.7 35 0 0
04:32 1026 30.3 855 25.25 15.7 60.3 39 1.9 35.4 0 0
04:33 1026 30.3 855 25.25 15.6 60.1 40 2.2 35.9 0 0
04:34 1026 30.3 855 25.25 15.4 59.8 41 2.2 36 0 0
04:35 1026 30.3 855 25.25 15.2 59.3 41 2.2 36 0 0
04:36 1026 30.3 855 25.25 15 59 42 2.2 35.9 0 0
04:37 1026 30.3 855 25.25 14.9 58.8 43 2.4 36.4 0 0
04:38 1026 30.3 855 25.25 14.7 58.5 44 2.5 36.6 0 0
04:39 1026 30.3 855 25.25 14.5 58.2 44 2.7 36.8 0 0
04:40 1026 30.3 855 25.25 14.4 58 43 2.2 36 0 0
04:41 1026 30.3 855 25.25 14.5 58.1 43 2.1 35.8 0 0
04:42 1025 30.27 855 25.25 14.5 58.2 42 2 35.6 0 0
04:43 1025 30.27 855 25.25 14.7 58.4 42 2.1 35.8 0 0
04:44 1026 30.3 855 25.25 14.9 58.7 42 2 35.7 0 0
04:45 1026 30.3 855 25.25 15 58.9 42 2.2 36 0 0
04:46 1025 30.27 855 25.25 15.1 59.1 42 2.3 36.1 0 0
04:47 1025 30.27 855 25.25 15.1 59.2 42 2.2 36 0 0
04:48 1025 30.27 855 25.25 15.1 59.2 42 2.3 36.2 0 0
04:49 1026 30.3 855 25.25 15.2 59.3 42 2.4 36.3 0 0
04:50 1026 30.3 855 25.25 15.1 59.2 41 2.2 35.9 0 0
04:51 1025 30.27 855 25.25 15.2 59.4 40 2 35.6 0 0
04:52 1026 30.3 855 25.25 15.5 59.8 40 2.2 35.9 0 0
04:53 1026 30.3 855 25.25 15.6 60 40 2.2 36 0 0
04:54 1026 30.3 855 25.25 15.6 60.1 41 2.4 36.3 0 0
04:55 1026 30.3 855 25.25 15.5 59.8 42 2.9 37.2 0 0
04:56 1026 30.3 855 25.25 15.1 59.2 43 2.8 37.1 0 0
04:57 1026 30.3 855 25.25 14.9 58.7 44 2.7 36.9 0 0
04:58 1026 30.3 855 25.25 14.7 58.4 44 2.7 36.9 0 0
04:59 1026 30.3 855 25.25 14.5 58 45 2.7 36.9 0 0
05:00 1026 30.3 855 25.25 14.2 57.6 46 2.8 37 0 0
05:01 1026 30.3 855 25.25 14 57.2 47 3 37.4 0 0
05:02 1026 30.3 855 25.25 13.8 56.8 47 2.8 37.1 0 0
05:03 1026 30.3 855 25.25 13.6 56.4 48 3 37.3 0 0
05:04 1026 30.3 855 25.25 13.5 56.2 49 3.1 37.6 0 0
05:05 1026 30.3 855 25.25 13.3 56 50 3.2 37.8 0 0
05:06 1026 30.3 855 25.25 13.2 55.8 51 3.3 38 0 0
05:07 1026 30.3 855 25.25 12.9 55.3 52 3.4 38.1 0 0
05:08 1026 30.3 855 25.25 12.7 54.8 53 3.3 38 0 0
05:09 1026 30.3 855 25.25 12.4 54.3 54 3.3 38 0 0
05:10 1026 30.3 855 25.25 12.2 54 54 3.3 37.9 0 0
05:11 1026 30.3 855 25.25 12.1 53.7 54 3 37.5 0 0
05:12 1026 30.3 855 25.25 12 53.7 54 3 37.5 0 0
05:13 1026 30.3 855 25.25 12.1 53.8 54 3 37.4 0 0
05:14 1026 30.3 855 25.25 12.2 53.9 54 3.1 37.6 0 0
05:15 1026 30.3 855 25.25 12.2 54 53 3 37.4 0 0
05:16 1026 30.3 855 25.25 12.3 54.2 53 3 37.4 0 0
05:17 1026 30.3 855 25.25 12.5 54.5 52 3 37.4 0 0
05:18 1026 30.3 855 25.25 12.7 54.8 51 2.9 37.2 0 0
05:19 1026 30.3 855 25.25 12.8 55 51 3 37.5 0 0
05:20 1026 30.3 855 25.25 12.7 54.9 52 3.2 37.8 0 0
05:21 1026 30.3 855 25.25 12.6 54.6 52 3.1 37.6 0 0
05:22 1026 30.3 855 25.25 12.5 54.4 53 3.1 37.7 0 0
05:23 1026 30.3 855 25.25 12.4 54.4 51 2.6 36.8 0 0
05:24 1026 30.3 855 25.25 12.8 55.1 49 2.5 36.6 0 0
05:25 1026 30.3 855 25.25 13.1 55.6 49 2.7 36.9 0 0
05:26 1026 30.3 855 25.25 13.1 55.6 50 2.9 37.3 0 0
05:27 1026 30.3 855 25.25 13 55.5 50 3 37.5 0 0
05:28 1026 30.3 855 25.25 13 55.3 49 2.7 36.8 0 0
05:29 1026 30.3 855 25.25 13.3 56 47 2.5 36.4 0 0
05:30 1026 30.3 855 25.25 13.9 56.9 46 2.6 36.6 0 0
05:31 1026 30.3 855 25.25 14.2 57.5 45 2.6 36.6 0 0
05:32 1026 30.3 855 25.25 14.4 57.9 45 2.7 36.9 0 0
05:33 1026 30.3 855 25.25 14.4 57.9 45 2.8 37 0 0
05:34 1026 30.3 855 25.25 14.4 57.9 45 2.8 37 0 0
05:35 1026 30.3 855 25.25 14.4 57.9 45 2.8 37 0 0
05:36 1026 30.3 855 25.25 14.3 57.8 45 2.7 36.9 0 0
05:37 1026 30.3 855 25.25 14.3 57.7 46 2.9 37.3 0 0
05:38 1026 30.3 855 25.25 14.1 57.4 46 2.8 37.1 0 0
05:39 1026 30.3 855 25.25 14.1 57.4 46 2.6 36.6 0 0
05:40 1026 30.3 855 25.25 14.2 57.6 45 2.5 36.5 0 0
05:41 1026 30.3 855 25.25 14.4 57.9 44 2.5 36.5 0 0
05:42 1026 30.3 855 25.25 14.5 58.2 44 2.6 36.7 0 0
05:43 1026 30.3 855 25.25 14.6 58.3 44 2.6 36.6 0 0
05:44 1026 30.3 855 25.25 14.8 58.6 44 2.6 36.7 0 0
05:45 1026 30.3 855 25.25 14.8 58.7 43 2.6 36.6 0 0
05:46 1026 30.3 855 25.25 14.8 58.6 43 2.6 36.6 0 0
05:47 1026 30.3 855 25.25 14.8 58.6 43 2.5 36.6 0 0
05:48 1026 30.3 855 25.25 14.8 58.7 42 2.2 36 0 0
05:49 1026 30.3 855 25.25 15 59.1 42 2.2 35.9 0 0
05:50 1026 30.3 855 25.25 15.2 59.4 42 2.6 36.7 0 0
05:51 1026 30.3 855 25.25 15.2 59.4 42 2.6 36.7 0 0
05:52 1026 30.3 855 25.25 15.1 59.2 42 2.5 36.6 0 0
05:53 1026 30.3 855 25.25 15 59.1 43 2.6 36.7 0 0
05:54 1026 30.3 855 25.25 14.9 58.8 44 2.7 36.8 0 0
05:55 1026 30.3 855 25.25 14.7 58.4 44 2.8 37 0 0
05:56 1026 30.3 855 25.25 14.5 58.1 44 2.6 36.7 0 0
05:57 1026 30.3 855 25.25 14.5 58.1 43 2.1 35.8 0 0
05:58 1026 30.3 855 25.25 14.7 58.5 43 2.4 36.2 0 0
05:59 1026 30.3 855 25.25 14.7 58.5 43 2.5 36.4 0 0
06:00 1026 30.3 855 25.25 14.6 58.2 45 2.7 36.9 0 0
06:01 1026 30.3 855 25.25 14.4 58 44 2.4 36.3 0 0
06:02 1026 30.3 855 25.25 14.6 58.2 43 2.4 36.3 0 0
06:03 1026 30.3 855 25.25 14.6 58.4 43 2.3 36.2 0 0
06:04 1026 30.3 855 25.25 14.8 58.7 42 2.2 36 0 0
06:05 1026 30.3 855 25.25 15 59 42 2.2 36 0 0
06:06 1026 30.3 855 25.25 15.1 59.2 42 2.5 36.5 0 0
06:07 1026 30.3 855 25.25 15.1 59.2 42 2.5 36.6 0 0
06:08 1026 30.3 855 25.25 15.1 59.2 42 2.5 36.4 0 0
06:09 1026 30.3 855 25.25 15 59.1 43 2.6 36.7 0 0
06:10 1026 30.3 855 25.25 14.9 58.8 44 2.7 36.9 0 0
06:11 1026 30.3 855 25.25 14.8 58.6 44 2.7 36.8 0 0
06:12 1026 30.3 855 25.25 14.7 58.4 44 2.5 36.6 0 0
06:13 1026 30.3 855 25.25 14.7 58.5 43 2.4 36.3 0 0
06:14 1026 30.3 855 25.25 14.9 58.8 43 2.4 36.2 0 0
06:15 1026 30.3 855 25.25 15 58.9 42 2.2 35.9 0 0
06:16 1026 30.3 855 25.25 15.1 59.2 42 2.3 36.1 0 0
06:17 1026 30.3 855 25.25 15.2 59.4 41 2.2 36 0 0
06:18 1026 30.3 855 25.25 15.4 59.6 41 2.2 35.9 0 0
06:19 1026 30.3 855 25.25 15.6 60 40 2 35.6 0 0
06:20 1026 30.3 855 25.25 15.7 60.2 39 1.9 35.4 0 0
06:21 1026 30.3 855 25.25 15.9 60.7 38 1.9 35.4 0 0
06:22 1026 30.3 855 25.25 16.1 60.9 39 2.2 35.9 0 0
06:23 1026 30.3 855 25.25 16.2 61.1 38 2.1 35.8 0 0
06:24 1026 30.3 855 25.25 16.2 61.1 38 2.2 35.9 0 0
06:25 1026 30.3 855 25.25 16.2 61.1 39 2.2 36 0 0
06:26 1026 30.3 855 25.25 16.1 60.9 39 2.3 36.1 0 0
06:27 1026 30.3 855 25.25 16 60.8 39 2.3 36.1 0 0
06:28 1026 30.3 855 25.25 15.9 60.7 40 2.3 36.1 0 0
06:29 1026 30.3 855 25.25 16 60.8 39 2.3 36.2 0 0
06:30 1026 30.3 855 25.25 16 60.8 40 2.4 36.3 0 0
06:31 1026 30.3 855 25.25 16 60.8 39 2.3 36.1 0 0
06:32 1026 30.3 855 25.25 15.9 60.7 40 2.3 36.1 0 0
06:33 1026 30.3 855 25.25 15.9 60.5 41 2.6 36.7 0 0
06:34 1026 30.3 855 25.25 15.8 60.4 41 2.8 37 0 0
06:35 1026 30.3 855 25.25 15.6 60.2 41 2.5 36.4 0 0
06:36 1026 30.3 855 25.25 15.6 60.1 41 2.4 36.2 0 0
06:37 1026 30.3 855 25.25 15.6 60.1 40 2.2 36 0 0
06:38 1026 30.3 855 25.25 15.6 60.1 41 2.6 36.6 0 0
06:39 1026 30.3 855 25.25 15.5 60 41 2.6 36.6 0 0
06:40 1026 30.3 855 25.25 15.5 59.8 42 2.8 37 0 0
06:41 1026 30.3 855 25.25 15.4 59.7 43 3 37.3 0 0
06:42 1026 30.3 855 25.25 15.3 59.5 43 2.8 37.1 0 0
06:43 1026 30.3 855 25.25 15.3 59.5 43 3 37.4 0 0
06:44 1026 30.3 855 25.25 15.2 59.4 43 2.8 37 0 0
06:45 1026 30.3 855 25.25 15.2 59.4 43 2.8 37 0 0
06:46 1026 30.3 855 25.25 15.2 59.4 43 2.7 36.9 0 0
06:47 1026 30.3 855 25.25 15.4 59.6 42 2.6 36.7 0 0
06:48 1026 30.3 855 25.25 15.4 59.8 42 2.8 37.1 0 0
06:49 1026 30.3 855 25.25 15.5 59.8 41 2.5 36.4 0 0
06:50 1026 30.3 855 25.25 15.6 60.1 42 2.7 36.9 0 0
06:51 1026 30.3 855 25.25 15.7 60.2 41 2.6 36.6 0 0
06:52 1026 30.3 855 25.25 15.8 60.4 41 2.6 36.6 0 0
06:53 1026 30.3 855 25.25 15.8 60.4 41 2.7 36.9 0 0
06:54 1026 30.3 855 25.25 15.8 60.5 41 2.8 37 0 0
06:55 1026 30.3 855 25.25 15.8 60.5 42 2.9 37.2 0 0
06:56 1026 30.3 855 25.25 15.9 60.5 42 3 37.4 0 0
06:57 1026 30.3 855 25.25 15.8 60.4 42 2.9 37.3 0 0
06:58 1026 30.3 855 25.25 15.7 60.3 42 3 37.3 0 0
06:59 1026 30.3 855 25.25 15.7 60.2 42 3 37.4 0 0
07:00 1026 30.3 855 25.25 15.6 60.1 43 3.2 37.7 0 0
07:01 1026 30.3 855 25.25 15.6 60.1 42 2.9 37.2 0 0
07:02 1026 30.3 855 25.25 15.7 60.2 43 3.1 37.6 0 0
07:03 1026 30.3 855 25.25 15.7 60.2 43 3.4 38.1 0 0
07:04 1026 30.3 855 25.25 15.7 60.3 42 2.8 37.1 0 0
07:05 1026 30.3 855 25.25 15.9 60.5 41 2.8 37 0 0
07:06 1026 30.3 855 25.25 16.1 60.9 41 2.9 37.3 0 0
07:07 1026 30.3 855 25.25 16.1 61.1 42 3.3 37.9 0 0
07:08 1026 30.3 855 25.25 16.2 61.2 41 3.2 37.7 0 0
07:09 1026 30.3 855 25.25 16.2 61.2 41 3.1 37.6 0 0
07:10 1026 30.3 855 25.25 16.3 61.4 41 3.1 37.6 0 0
07:11 1026 30.3 855 25.25 16.4 61.5 41 3.1 37.6 0 0
07:12 1026 30.3 855 25.25 16.4 61.6 40 2.7 36.9 0 0
07:13 1026 30.3 855 25.25 16.6 61.8 40 3 37.3 0 0
07:14 1026 30.3 855 25.25 16.7 62 40 3.2 37.8 0 0
07:15 1026 30.3 855 25.25 16.7 62.1 40 3.1 37.6 0 0
07:16 1026 30.3 855 25.25 16.8 62.2 40 3.3 38 0 0
07:17 1026 30.3 855 25.25 16.7 62.1 39 3 37.3 0 0
07:18 1026 30.3 855 25.25 16.7 62.1 42 3.8 38.8 0 0
07:19 1026 30.3 855 25.25 16.6 61.8 44 4.6 40.2 0 0
07:20 1026 30.3 855 25.25 16.3 61.4 46 4.7 40.4 0 0
07:21 1026 30.3 855 25.25 16.1 60.9 47 4.9 40.9 0 0
07:22 1026 30.3 855 25.25 15.9 60.6 47 4.7 40.4 0 0
07:23 1026 30.3 855 25.25 15.8 60.4 47 4.7 40.4 0 0
07:24 1026 30.3 855 25.25 15.8 60.5 46 4.4 39.9 0 0
07:25 1026 30.3 855 25.25 15.8 60.5 45 3.9 39.1 0 0
07:26 1026 30.3 855 25.25 16 60.7 47 4.7 40.5 0 0
07:27 1026 30.3 855 25.25 16 60.7 46 4.6 40.2 0 0
07:28 1026 30.3 855 25.25 16 60.7 47 4.8 40.6 0 0
07:29 1026 30.3 855 25.25 16 60.7 47 4.7 40.4 0 0
07:30 1026 30.3 855 25.25 16 60.7 48 5.1 41.2 0 0
07:31 1026 30.3 855 25.25 15.9 60.7 48 4.9 40.8 0 0
07:32 1026 30.3 855 25.25 16 60.8 47 4.8 40.7 0 0
07:33 1026 30.3 855 25.25 16.1 60.9 46 4.6 40.3 0 0
07:34 1026 30.3 855 25.25 16.2 61.1 46 4.7 40.5 0 0
07:35 1026 30.3 855 25.25 16.2 61.2 46 4.8 40.6 0 0
07:36 1026 30.3 855 25.25 16.3 61.3 45 4.5 40.1 0 0
07:37 1026 30.3 855 25.25 16.3 61.4 45 4.6 40.3 0 0
07:38 1026 30.3 855 25.25 16.4 61.6 45 4.6 40.3 0 0
07:39 1026 30.3 855 25.25 16.6 61.8 46 4.9 40.7 0 0
07:40 1026 30.3 855 25.25 16.7 62.1 43 4.2 39.5 0 0
07:41 1026 30.3 855 25.25 16.9 62.4 43 4.3 39.7 0 0
07:42 1026 30.3 855 25.25 17 62.6 44 4.7 40.5 0 0
07:43 1026 30.3 855 25.25 17 62.6 43 4.6 40.2 0 0
07:44 1026 30.3 855 25.25 17.1 62.7 46 5.4 41.7 0 0
07:45 1026 30.3 855 25.25 17 62.6 42 4.3 39.7 0 0
07:46 1026 30.3 855 25.25 17.1 62.8 44 4.9 40.7 0 0
07:47 1026 30.3 855 25.25 17.2 62.9 44 4.8 40.6 0 0
07:48 1026 30.3 855 25.25 17.2 63 41 4 39.2 0 0
07:49 1026 30.3 855 25.25 17.3 63.2 43 4.6 40.3 0 0
07:50 1026 30.3 855 25.25 17.4 63.2 43 4.9 40.8 0 0
07:51 1026 30.3 855 25.25 17.3 63.2 43 4.6 40.4 0 0
07:52 1026 30.3 855 25.25 17.3 63.2 44 5.2 41.3 0 0
07:53 1026 30.3 855 25.25 17.3 63.2 44 5 41 0 0
07:54 1026 30.3 855 25.25 17.4 63.3 44 5.3 41.5 0 0
07:55 1026 30.3 855 25.25 17.5 63.5 44 5.2 41.4 0 0
07:56 1026 30.3 855 25.25 17.6 63.6 43 5 41 0 0
07:57 1026 30.3 855 25.25 17.6 63.6 43 4.9 40.8 0 0
07:58 1026 30.3 855 25.25 17.7 63.8 43 5.2 41.3 0 0
07:59 1026 30.3 855 25.25 17.7 63.8 44 5.4 41.6 0 0
08:00 1026 30.3 855 25.25 17.7 63.9 45 5.7 42.2 0 0
08:01 1026 30.3 855 25.25 17.7 63.8 44 5.5 41.9 0 0
08:02 1026 30.3 855 25.25 17.7 63.8 45 5.7 42.2 0 0
08:03 1026 30.3 855 25.25 17.7 63.9 44 5.4 41.7 0 0
08:04 1026 30.3 855 25.25 17.7 63.9 45 5.8 42.4 0 0
08:05 1026 30.3 855 25.25 17.8 64 44 5.5 41.9 0 0
08:06 1026 30.3 855 25.25 17.8 64.1 44 5.6 42.1 0 0
08:07 1026 30.3 855 25.25 17.9 64.2 44 5.5 42 0 0
08:08 1026 30.3 855 25.25 18 64.4 45 6 42.8 0 0
08:09 1026 30.3 855 25.25 18.1 64.7 43 5.4 41.6 0 0
08:10 1026 30.3 855 25.25 18.4 65 40 4.5 40.1 0 0
08:11 1026 30.3 855 25.25 18.6 65.4 38 4 39.1 0 0
08:12 1026 30.3 855 25.25 18.8 65.8 38 4.3 39.7 0 0
08:13 1026 30.3 855 25.25 18.9 66.1 38 4.3 39.8 0 0
08:14 1026 30.3 855 25.25 19.1 66.4 38 4.8 40.6 0 0
08:15 1026 30.3 855 25.25 19.3 66.7 36 4 39.2 0 0
08:16 1026 30.3 855 25.25 19.4 67 37 4.4 40 0 0
08:17 1026 30.3 855 25.25 19.6 67.3 36 4.1 39.4 0 0
08:18 1026 30.3 855 25.25 19.7 67.4 35 4.1 39.4 0 0
08:19 1026 30.3 855 25.25 19.7 67.5 35 3.8 38.9 0 0
08:20 1026 30.3 855 25.25 19.8 67.6 34 3.8 38.8 0 0
08:21 1026 30.3 855 25.25 19.8 67.6 35 4 39.1 0 0
08:22 1026 30.3 855 25.25 19.8 67.7 36 4.3 39.8 0 0
08:23 1026 30.3 855 25.25 19.9 67.7 39 5.8 42.5 0 0
08:24 1026 30.3 855 25.25 20 67.9 40 6 42.8 0 0
08:25 1026 30.3 855 25.25 20 68 41 6.4 43.5 0 0
08:26 1026 30.3 855 25.25 20.1 68.2 36 4.6 40.3 0 0
08:27 1026 30.3 855 25.25 20.1 68.2 36 4.9 40.8 0 0
08:28 1026 30.3 855 25.25 20.2 68.4 37 5.1 41.2 0 0
08:29 1026 30.3 855 25.25 20.2 68.4 36 4.8 40.7 0 0
08:30 1026 30.3 855 25.25 20.2 68.4 35 4.4 39.9 0 0
08:31 1026 30.3 855 25.25 20.3 68.5 36 4.9 40.8 0 0
08:32 1026 30.3 855 25.25 20.3 68.6 33 3.8 38.9 0 0
08:33 1026 30.3 855 25.25 20.4 68.7 34 4.3 39.7 0 0
08:34 1026 30.3 855 25.25 20.4 68.8 34 4.4 39.8 0 0
08:35 1026 30.3 855 25.25 20.5 68.9 30 2.5 36.5 0 0
08:36 1026 30.3 855 25.25 20.5 69 31 3 37.3 0 0
08:37 1026 30.3 855 25.25 20.5 68.9 33 3.8 38.9 0 0
08:38 1026 30.3 855 25.25 20.4 68.8 31 2.8 37.1 0 0
08:39 1026 30.3 855 25.25 20.3 68.6 30 2.2 36 0 0
08:40 1026 30.3 855 25.25 20.3 68.6 30 2.3 36.1 0 0
08:41 1026 30.3 855 25.25 20.3 68.5 30 2.5 36.4 0 0
08:42 1026 30.3 855 25.25 20.3 68.5 33 3.5 38.2 0 0
08:43 1026 30.3 855 25.25 20.2 68.4 35 4.5 40.1 0 0
08:44 1026 30.3 855 25.25 20.2 68.4 32 3 37.4 0 0
08:45 1026 30.3 855 25.25 20.2 68.4 33 3.8 38.8 0 0
08:46 1026 30.3 855 25.25 20.3 68.6 30 2.4 36.3 0 0
08:47 1026 30.3 855 25.25 20.4 68.8 32 3.3 37.9 0 0
08:48 1026 30.3 855 25.25 20.5 69 31 3 37.5 0 0
08:49 1026 30.3 855 25.25 20.7 69.2 33 4.2 39.6 0 0
08:50 1026 30.3 855 25.25 20.8 69.4 32 3.5 38.3 0 0
08:51 1026 30.3 855 25.25 20.9 69.7 33 4.1 39.3 0 0
08:52 1026 30.3 855 25.25 21 69.8 30 3.1 37.7 0 0
08:53 1026 30.3 855 25.25 21.2 70.1 32 3.9 39 0 0
08:54 1026 30.3 855 25.25 21.2 70.2 33 4.6 40.3 0 0
08:55 1026 30.3 855 25.25 21.4 70.5 33 4.9 40.7 0 0
08:56 1026 30.3 855 25.25 21.5 70.7 34 5 41.1 0 0
08:57 1026 30.3 855 25.25 21.6 70.8 31 3.9 39 0 0
08:58 1026 30.3 855 25.25 21.5 70.6 35 5.6 42.1 0 0
08:59 1026 30.3 855 25.25 21.4 70.6 36 5.9 42.6 0 0
09:00 1026 30.3 855 25.25 21.4 70.5 31 3.8 38.9 0 0
09:01 1026 30.3 855 25.25 21.3 70.4 38 6.5 43.6 0 0
09:02 1026 30.3 855 25.25 21.3 70.3 35 5.5 42 0 0
09:03 1026 30.3 855 25.25 21.3 70.3 33 4.7 40.5 0 0
09:04 1026 30.3 855 25.25 21.2 70.2 37 6.3 43.3 0 0
09:05 1026 30.3 855 25.25 21.2 70.2 33 4.7 40.5 0 0
09:06 1026 30.3 855 25.25 21.1 70.1 37 5.9 42.6 0 0
09:07 1026 30.3 855 25.25 21.1 70 38 6.3 43.4 0 0
09:08 1026 30.3 855 25.25 21.1 70 36 5.7 42.3 0 0
09:09 1026 30.3 855 25.25 21.1 69.9 33 4.4 39.8 0 0
09:10 1026 30.3 855 25.25 21.1 70 35 5.3 41.6 0 0
09:11 1026 30.3 855 25.25 21.1 70 33 4.2 39.6 0 0
09:12 1026 30.3 855 25.25 21.1 69.9 39 6.8 44.3 0 0
09:13 1026 30.3 855 25.25 21.1 70 36 5.7 42.2 0 0
09:14 1026 30.3 855 25.25 21.1 70 34 4.6 40.3 0 0
09:15 1026 30.3 855 25.25 21.1 70 38 6.3 43.3 0 0
09:16 1026 30.3 855 25.25 21.2 70.1 38 6.4 43.5 0 0
09:17 1026 30.3 855 25.25 21.2 70.2 33 4.3 39.7 0 0
09:18 1026 30.3 855 25.25 21.2 70.1 33 4.3 39.7 0 0
09:19 1026 30.3 855 25.25 21.3 70.3 36 5.7 42.3 0 0
09:20 1026 30.3 855 25.25 21.3 70.4 38 6.4 43.6 0 0
09:21 1026 30.3 855 25.25 21.5 70.6 33 4.6 40.2 0 0
09:22 1026 30.3 855 25.25 21.5 70.8 35 5.6 42.1 0 0
09:23 1026 30.3 855 25.25 21.6 70.9 34 5.3 41.6 0 0
09:24 1026 30.3 855 25.25 21.7 71 36 6 42.7 0 0
09:25 1026 30.3 855 25.25 21.8 71.2 36 6.1 43.1 0 0
09:26 1026 30.3 855 25.25 21.8 71.3 33 4.9 40.8 0 0
09:27 1026 30.3 855 25.25 21.8 71.2 32 4.8 40.6 0 0
09:28 1026 30.3 855 25.25 21.8 71.2 32 4.6 40.3 0 0
09:29 1026 30.3 855 25.25 21.8 71.3 35 6 42.8 0 0
09:30 1026 30.3 855 25.25 21.8 71.2 31 4.1 39.4 0 0
09:31 1026 30.3 855 25.25 21.8 71.3 31 4.2 39.6 0 0
09:32 1026 30.3 855 25.25 21.8 71.3 33 5.2 41.3 0 0
09:33 1026 30.3 855 25.25 21.9 71.5 34 5.7 42.2 0 0
09:34 1026 30.3 855 25.25 22 71.5 31 4.3 39.8 0 0
09:35 1026 30.3 855 25.25 22 71.7 30 4 39.3 0 0
09:36 1026 30.3 855 25.25 22.2 71.9 30 3.9 38.9 0 0
09:37 1026 30.3 855 25.25 22.2 71.9 31 4.2 39.6 0 0
09:38 1026 30.3 855 25.25 22.2 71.9 30 4.1 39.3 0 0
09:39 1026 30.3 855 25.25 22.2 72 33 5.2 41.4 0 0
09:40 1026 30.3 855 25.25 22.2 72 30 4.2 39.5 0 0
09:41 1026 30.3 855 25.25 22.3 72.1 30 4.1 39.4 0 0
09:42 1026 30.3 855 25.25 22.3 72.1 33 5.6 42.1 0 0
09:43 1026 30.3 855 25.25 22.3 72.2 29 3.8 38.8 0 0
09:44 1026 30.3 855 25.25 22.4 72.4 30 4.3 39.8 0 0
09:45 1026 30.3 855 25.25 22.4 72.4 30 4.4 39.9 0 0
09:46 1026 30.3 855 25.25 22.4 72.3 32 5.3 41.5 0 0
09:47 1026 30.3 855 25.25 22.4 72.3 30 4.2 39.6 0 0
09:48 1026 30.3 855 25.25 22.4 72.3 32 4.9 40.9 0 0
09:49 1026 30.3 855 25.25 22.4 72.4 31 4.8 40.7 0 0
09:50 1026 30.3 855 25.25 22.5 72.5 35 6.4 43.5 0 0
09:51 1026 30.3 855 25.25 22.5 72.5 30 4.2 39.5 0 0
09:52 1026 30.3 855 25.25 22.6 72.6 31 4.7 40.4 0 0
09:53 1026 30.3 855 25.25 22.6 72.7 28 3.5 38.3 0 0
09:54 1026 30.3 855 25.25 22.6 72.7 29 3.9 39 0 0
09:55 1026 30.3 855 25.25 22.6 72.6 32 5 41.1 0 0
09:56 1026 30.3 855 25.25 22.6 72.6 30 4.2 39.6 0 0
09:57 1026 30.3 855 25.25 22.6 72.8 29 3.9 39.1 0 0
09:58 1026 30.3 855 25.25 22.7 72.8 30 4.4 40 0 0
09:59 1026 30.3 855 25.25 22.7 72.9 30 4.5 40.1 0 0
10:00 1026 30.3 855 25.25 22.8 73 34 6.3 43.3 0 0
10:01 1026 30.3 855 25.25 22.8 73.1 30 4.5 40.2 0 0
10:02 1026 30.3 855 25.25 22.9 73.1 27 2.9 37.2 0 0
10:03 1026 30.3 855 25.25 22.9 73.1 32 5.7 42.2 0 0
10:04 1026 30.3 855 25.25 22.9 73.1 27 3.2 37.8 0 0
10:05 1026 30.3 855 25.25 22.8 73 25 2 35.6 0 0
10:06 1026 30.3 855 25.25 22.7 72.9 27 3.1 37.6 0 0
10:07 1026 30.3 855 25.25 22.7 72.9 25 1.9 35.4 0 0
10:08 1026 30.3 855 25.25 22.7 72.8 30 4.3 39.7 0 0
10:09 1026 30.3 855 25.25 22.7 72.8 27 3 37.4 0 0
10:10 1026 30.3 855 25.25 22.8 73 30 4.7 40.4 0 0
10:11 1026 30.3 855 25.25 22.8 73.1 26 2.3 36.2 0 0
10:12 1026 30.3 855 25.25 22.8 73.1 26 2.4 36.3 0 0
10:13 1026 30.3 855 25.25 22.8 73.1 27 2.8 37.1 0 0
10:14 1026 30.3 855 25.25 22.9 73.1 25 1.9 35.4 0 0
10:15 1026 30.3 855 25.25 22.9 73.1 30 4.7 40.5 0 0
10:16 1026 30.3 855 25.25 22.9 73.3 29 4.3 39.8 0 0
10:17 1026 30.3 855 25.25 22.9 73.3 31 5.2 41.4 0 0
10:18 1026 30.3 855 25.25 23 73.5 25 1.9 35.5 0 0
10:19 1026 30.3 855 25.25 23.1 73.5 29 4.2 39.5 0 0
10:20 1026 30.3 855 25.25 23.1 73.5 27 3.1 37.6 0 0
10:21 1026 30.3 855 25.25 23.1 73.5 32 5.7 42.2 0 0
10:22 1026 30.3 855 25.25 23.2 73.7 26 2.8 37 0 0
10:23 1026 30.3 855 25.25 23.2 73.8 27 3.3 38 0 0
10:24 1026 30.3 855 25.25 23.3 73.9 28 3.9 39.1 0 0
10:25 1026 30.3 855 25.25 23.4 74 31 5.4 41.8 0 0
10:26 1026 30.3 855 25.25 23.4 74.1 31 5.4 41.7 0 0
10:27 1026 30.3 855 25.25 23.4 74 29 4.7 40.5 0 0
10:28 1026 30.3 855 25.25 23.4 74.1 28 4.2 39.5 0 0
10:29 1026 30.3 855 25.25 23.4 74 31 5.7 42.3 0 0
10:30 1026 30.3 855 25.25 23.4 74.1 29 4.6 40.2 0 0
10:31 1026 30.3 855 25.25 23.4 74.2 29 4.7 40.4 0 0
10:32 1026 30.3 855 25.25 23.4 74.1 27 3.4 38.1 0 0
10:33 1026 30.3 855 25.25 23.4 74.1 31 5.4 41.8 0 0
10:34 1026 30.3 855 25.25 23.4 74.2 29 4.5 40.1 0 0
10:35 1026 30.3 855 25.25 23.4 74.1 27 3.8 38.8 0 0
10:36 1026 30.3 855 25.25 23.4 74.1 29 4.4 39.9 0 0
10:37 1026 30.3 855 25.25 23.4 74.1 25 2.5 36.5 0 0
10:38 1026 30.3 855 25.25 23.4 74.1 28 4.2 39.6 0 0
10:39 1026 30.3 855 25.25 23.5 74.3 28 4.2 39.6 0 0
10:40 1026 30.3 855 25.25 23.6 74.5 29 4.8 40.6 0 0
10:41 1026 30.3 855 25.25 23.6 74.5 29 4.7 40.5 0 0
10:42 1026 30.3 855 25.25 23.6 74.4 27 3.6 38.6 0 0
10:43 1026 30.3 855 25.25 23.6 74.4 27 3.6 38.5 0 0
10:44 1026 30.3 855 25.25 23.6 74.5 29 4.5 40.2 0 0
10:45 1026 30.3 855 25.25 23.7 74.6 28 4.6 40.2 0 0
10:46 1026 30.3 855 25.25 23.6 74.5 32 6.1 43 0 0
10:47 1026 30.3 855 25.25 23.7 74.7 27 4 39.2 0 0
10:48 1026 30.3 855 25.25 23.8 74.8 28 4.4 39.9 0 0
10:49 1026 30.3 855 25.25 23.8 74.9 31 5.7 42.2 0 0
10:50 1026 30.3 855 25.25 23.9 75 30 5.7 42.3 0 0
10:51 1026 30.3 855 25.25 24 75.2 28 4.7 40.4 0 0
10:52 1026 30.3 855 25.25 24 75.3 26 3.7 38.6 0 0
10:53 1026 30.3 855 25.25 24 75.3 31 6.2 43.2 0 0
10:54 1026 30.3 855 25.25 24 75.2 27 4 39.2 0 0
10:55 1026 30.3 855 25.25 24 75.2 30 5.8 42.4 0 0
10:56 1026 30.3 855 25.25 24.2 75.5 30 5.6 42.1 0 0
10:57 1026 30.3 855 25.25 24.3 75.7 27 4.1 39.4 0 0
10:58 1026 30.3 855 25.25 24.4 75.8 25 3.3 37.9 0 0
10:59 1026 30.3 855 25.25 24.4 75.8 26 3.7 38.7 0 0
11:00 1026 30.3 855 25.25 24.4 75.9 25 3.2 37.8 0 0
11:01 1026 30.3 855 25.25 24.5 76 26 4 39.1 0 0
11:02 1026 30.3 855 25.25 24.4 76 24 2.7 36.8 0 0
11:03 1026 30.3 855 25.25 24.4 75.9 26 4 39.2 0 0
11:04 1026 30.3 855 25.25 24.4 76 25 3.5 38.4 0 0
11:05 1026 30.3 855 25.25 24.4 75.9 30 5.8 42.4 0 0
11:06 1026 30.3 855 25.25 24.5 76 24 2.7 36.8 0 0
11:07 1026 30.3 855 25.25 24.6 76.3 25 3.3 37.9 0 0
11:08 1026 30.3 855 25.25 24.7 76.5 22 2.1 35.8 0 0
11:09 1026 30.3 855 25.25 24.7 76.5 23 2.6 36.7 0 0
11:10 1026 30.3 855 25.25 24.7 76.5 24 3 37.5 0 0
11:11 1026 30.3 855 25.25 24.7 76.4 22 2.1 35.7 0 0
11:12 1026 30.3 855 25.25 24.7 76.4 23 2.4 36.3 0 0
11:13 1026 30.3 855 25.25 24.8 76.6 24 3.3 38 0 0
11:14 1026 30.3 855 25.25 24.9 76.7 23 2.7 36.8 0 0
11:15 1026 30.3 855 25.25 24.9 76.9 23 2.8 37.1 0 0
11:16 1026 30.3 855 25.25 25.1 77.1 27 5.1 41.1 0 0
11:17 1026 30.3 855 25.25 25.1 77.2 30 6.5 43.7 0 0
11:18 1026 30.3 855 25.25 25.1 77.2 25 3.8 38.8 0 0
11:19 1025 30.27 855 25.25 25 77.1 26 4.3 39.7 0 0
11:20 1025 30.27 855 25.25 25 77.1 26 4.5 40.1 0 0
11:21 1025 30.27 855 25.25 25 77 28 5.3 41.6 0 0
11:22 1025 30.27 855 25.25 25.1 77.2 30 6.8 44.3 0 0
11:23 1025 30.27 855 25.25 25.2 77.4 26 4.8 40.7 0 0
11:24 1025 30.27 855 25.25 25.3 77.5 30 6.6 43.8 0 0
11:25 1025 30.27 855 25.25 25.4 77.6 25 4 39.3 0 0
11:26 1025 30.27 855 25.25 25.4 77.8 23 2.9 37.2 0 0
11:27 1025 30.27 855 25.25 25.5 77.9 25 4.4 40 0 0
11:28 1025 30.27 855 25.25 25.5 77.9 23 3.1 37.7 0 0
11:29 1025 30.27 855 25.25 25.4 77.8 23 3.1 37.5 0 0
11:30 1025 30.27 855 25.25 25.4 77.6 27 5.5 41.9 0 0
11:31 1025 30.27 855 25.25 25.5 77.9 26 4.6 40.3 0 0
11:32 1025 30.27 855 25.25 25.5 77.9 25 4.1 39.4 0 0
11:33 1025 30.27 855 25.25 25.5 77.9 23 3.3 37.9 0 0
11:34 1025 30.27 854 25.22 25.7 78.3 25 4.7 40.5 0 0
11:35 1025 30.27 855 25.25 25.9 78.6 28 6.4 43.5 0 0
11:36 1025 30.27 854 25.22 25.9 78.5 26 5.3 41.6 0 0
11:37 1025 30.27 855 25.25 25.7 78.2 23 3.1 37.6 0 0
11:38 1025 30.27 854 25.22 25.6 78 30 7 44.5 0 0
11:39 1025 30.27 855 25.25 25.6 78.1 26 4.9 40.8 0 0
11:40 1025 30.27 855 25.25 25.6 78.2 23 3.5 38.3 0 0
11:41 1025 30.27 854 25.22 25.8 78.4 24 4 39.1 0 0
11:42 1025 30.27 855 25.25 25.8 78.5 26 5.3 41.5 0 0
11:43 1025 30.27 854 25.22 25.9 78.7 24 3.9 39 0 0
11:44 1025 30.27 854 25.22 26 78.8 27 5.8 42.4 0 0
11:45 1025 30.27 854 25.22 26.1 79 26 5.4 41.7 0 0
11:46 1025 30.27 854 25.22 26.2 79.2 30 7.3 45.2 0 0
11:47 1025 30.27 854 25.22 26.3 79.4 29 6.9 44.5 0 0
11:48 1025 30.27 854 25.22 26.4 79.6 25 5.2 41.3 0 0
11:49 1025 30.27 854 25.22 26.4 79.6 28 6.7 44.1 0 0
11:50 1025 30.27 854 25.22 26.4 79.6 27 6 42.9 0 0
11:51 1025 30.27 854 25.22 26.4 79.5 23 4 39.2 0 0
11:52 1025 30.27 854 25.22 26.4 79.4 27 6 42.7 0 0
11:53 1025 30.27 854 25.22 26.4 79.5 28 6.6 43.8 0 0
11:54 1025 30.27 854 25.22 26.6 79.9 24 4.9 40.8 0 0
11:55 1025 30.27 854 25.22 26.7 80.1 23 4.2 39.6 0 0
11:56 1025 30.27 854 25.22 26.8 80.2 25 5.6 42.1 0 0
11:57 1025 30.27 854 25.22 26.8 80.2 23 4.1 39.4 0 0
11:58 1025 30.27 854 25.22 26.8 80.2 25 5.4 41.7 0 0
11:59 1025 30.27 854 25.22 26.8 80.2 28 6.9 44.5 0 0
12:00 1025 30.27 854 25.22 26.8 80.2 24 4.9 40.9 0 0
12:01 1025 30.27 854 25.22 26.9 80.3 24 4.7 40.4 0 0
12:02 1025 30.27 854 25.22 27 80.6 24 4.8 40.7 0 0
12:03 1025 30.27 854 25.22 27 80.6 23 4.6 40.3 0 0
12:04 1025 30.27 854 25.22 27 80.5 29 7.9 46.2 0 0
12:05 1025 30.27 854 25.22 26.9 80.4 26 6.3 43.3 0 0
12:06 1025 30.27 854 25.22 26.8 80.3 27 6.5 43.6 0 0
12:07 1025 30.27 854 25.22 26.9 80.4 26 5.8 42.5 0 0
12:08 1025 30.27 854 25.22 26.9 80.5 26 6 42.7 0 0
12:09 1025 30.27 854 25.22 27 80.7 24 5.1 41.2 0 0
12:10 1025 30.27 854 25.22 27.2 80.9 26 6 42.8 0 0
12:11 1025 30.27 854 25.22 27.2 81 22 4.1 39.4 0 0
12:12 1025 30.27 854 25.22 27.1 80.8 22 3.7 38.7 0 0
12:13 1025 30.27 854 25.22 27 80.7 24 4.9 40.8 0 0
12:14 1025 30.27 854 25.22 27 80.6 24 5.1 41.2 0 0
12:15 1025 30.27 854 25.22 27.1 80.7 24 5.2 41.3 0 0
12:16 1025 30.27 854 25.22 27.2 80.9 23 4.3 39.7 0 0
12:17 1025 30.27 854 25.22 27.1 80.8 25 5.8 42.4 0 0
12:18 1025 30.27 854 25.22 27.2 80.9 23 4.5 40.1 0 0
12:19 1025 30.27 854 25.22 27.4 81.3 25 5.8 42.5 0 0
12:20 1025 30.27 854 25.22 27.5 81.5 29 8.4 47.1 0 0
12:21 1025 30.27 854 25.22 27.5 81.5 26 6.3 43.4 0 0
12:22 1025 30.27 854 25.22 27.5 81.5 30 8.6 47.4 0 0
12:23 1025 30.27 854 25.22 27.6 81.6 28 7.8 46 0 0
12:24 1025 30.27 854 25.22 27.5 81.6 24 5.4 41.7 0 0
12:25 1025 30.27 854 25.22 27.5 81.4 24 5.6 42.1 0 0
12:26 1025 30.27 854 25.22 27.5 81.5 23 4.9 40.9 0 0
12:27 1025 30.27 854 25.22 27.6 81.7 23 4.9 40.9 0 0
12:28 1025 30.27 854 25.22 27.7 81.8 24 5.6 42.2 0 0
12:29 1025 30.27 854 25.22 27.7 81.9 24 5.9 42.6 0 0
12:30 1025 30.27 854 25.22 27.7 81.9 25 6.4 43.5 0 0
12:31 1025 30.27 854 25.22 27.7 81.9 23 4.9 40.9 0 0
12:32 1025 30.27 854 25.22 27.7 81.9 21 4 39.2 0 0
12:33 1025 30.27 854 25.22 27.8 82 28 7.9 46.2 0 0
12:34 1025 30.27 854 25.22 28 82.3 21 3.9 39 0 0
12:35 1025 30.27 854 25.22 28.1 82.5 24 5.9 42.6 0 0
12:36 1025 30.27 854 25.22 28.2 82.8 21 4.1 39.3 0 0
12:37 1025 30.27 854 25.22 28.2 82.8 21 4 39.3 0 0
12:38 1025 30.27 854 25.22 28.2 82.7 21 3.8 38.9 0 0
12:39 1025 30.27 854 25.22 28.2 82.8 23 5.2 41.3 0 0
12:40 1025 30.27 854 25.22 28.3 82.9 24 6 42.8 0 0
12:41 1025 30.27 854 25.22 28.2 82.7 21 3.8 38.8 0 0
12:42 1025 30.27 854 25.22 28.2 82.7 21 4.1 39.4 0 0
12:43 1025 30.27 854 25.22 28.3 82.9 24 6.1 42.9 0 0
12:44 1025 30.27 854 25.22 28.4 83.2 24 6.4 43.5 0 0
12:45 1025 30.27 854 25.22 28.5 83.3 22 5.3 41.5 0 0
12:46 1025 30.27 854 25.22 28.5 83.3 23 5.6 42 0 0
12:47 1025 30.27 854 25.22 28.5 83.2 23 5.8 42.4 0 0
12:48 1025 30.27 854 25.22 28.5 83.2 22 5.2 41.3 0 0
12:49 1025 30.27 854 25.22 28.4 83.1 22 4.8 40.6 0 0
12:50 1025 30.27 854 25.22 28.3 83 21 4.3 39.7 0 0
12:51 1025 30.27 854 25.22 28.4 83.1 21 4.5 40 0 0
12:52 1025 30.27 854 25.22 28.7 83.6 23 5.8 42.5 0 0
12:53 1024 30.24 854 25.22 28.9 84 21 4.7 40.5 0 0
12:54 1024 30.24 854 25.22 29.1 84.4 22 5.5 41.9 0 0
12:55 1024 30.24 854 25.22 29.2 84.5 23 6.1 43 0 0
12:56 1024 30.24 854 25.22 29.1 84.4 23 6.5 43.6 0 0
12:57 1024 30.24 854 25.22 29 84.3 20 4.2 39.6 0 0
12:58 1024 30.24 854 25.22 28.9 84.1 21 4.6 40.4 0 0
12:59 1024 30.24 854 25.22 29 84.2 22 5.7 42.3 0 0
13:00 1024 30.24 854 25.22 29 84.3 22 5.7 42.3 0 0
13:01 1024 30.24 854 25.22 29 84.2 20 4.4 39.9 0 0
13:02 1024 30.24 854 25.22 28.9 84 23 5.8 42.4 0 0
13:03 1024 30.24 854 25.22 28.9 84 25 7.4 45.4 0 0
13:04 1024 30.24 854 25.22 29 84.1 24 6.9 44.4 0 0
13:05 1024 30.24 854 25.22 29 84.3 20 4 39.2 0 0
13:06 1024 30.24 854 25.22 29.2 84.5 22 5.7 42.3 0 0
13:07 1024 30.24 854 25.22 29.4 84.9 22 6 42.9 0 0
13:08 1024 30.24 854 25.22 29.5 85.2 21 5.1 41.2 0 0
13:09 1024 30.24 854 25.22 29.5 85.1 21 5.1 41.1 0 0
13:10 1024 30.24 854 25.22 29.4 85 21 4.9 40.7 0 0
13:11 1024 30.24 854 25.22 29.4 84.9 23 6.2 43.2 0 0
13:12 1024 30.24 853 25.19 29.5 85.1 26 8.2 46.8 0 0
13:13 1024 30.24 853 25.19 29.5 85.1 22 5.8 42.5 0 0
13:14 1024 30.24 853 25.19 29.5 85.1 23 6.5 43.7 0 0
13:15 1024 30.24 853 25.19 29.4 85 20 4.1 39.4 0 0
13:16 1024 30.24 853 25.19 29.4 84.9 23 6.2 43.1 0 0
13:17 1024 30.24 853 25.19 29.5 85.1 23 6.5 43.7 0 0
13:18 1024 30.24 853 25.19 29.5 85.1 19 3.9 39 0 0
13:19 1024 30.24 853 25.19 29.5 85 20 4.4 39.9 0 0
13:20 1024 30.24 853 25.19 29.5 85 24 7 44.7 0 0
13:21 1024 30.24 853 25.19 29.5 85.2 23 6.4 43.6 0 0
13:22 1024 30.24 853 25.19 29.7 85.4 25 8.1 46.6 0 0
13:23 1024 30.24 853 25.19 29.8 85.6 20 4.8 40.6 0 0
13:24 1024 30.24 853 25.19 29.8 85.7 20 4.8 40.6 0 0
13:25 1024 30.24 853 25.19 29.9 85.8 20 4.5 40.1 0 0
13:26 1024 30.24 853 25.19 29.9 85.8 23 6.7 44.1 0 0
13:27 1024 30.24 853 25.19 29.9 85.9 21 5.6 42.2 0 0
13:28 1024 30.24 853 25.19 30 86 19 4.4 39.9 0 0
13:29 1024 30.24 853 25.19 30.1 86.1 23 6.7 44.1 0 0
13:30 1024 30.24 853 25.19 30.3 86.5 22 6.7 44 0 0
13:31 1024 30.24 853 25.19 30.4 86.7 20 5.6 42.1 0 0
13:32 1024 30.24 853 25.19 30.6 87.1 23 7.7 45.9 0 0
13:33 1024 30.24 853 25.19 30.6 87.1 19 4.4 39.8 0 0
13:34 1024 30.24 853 25.19 30.5 86.9 17 3.3 37.9 0 0
13:35 1024 30.24 853 25.19 30.5 86.9 18 4 39.1 0 0
13:36 1024 30.24 853 25.19 30.7 87.2 18 3.9 39.1 0 0
13:37 1024 30.24 853 25.19 30.8 87.5 18 4.4 39.8 0 0
13:38 1024 30.24 853 25.19 30.9 87.5 17 3.7 38.6 0 0
13:39 1024 30.24 853 25.19 30.7 87.3 22 6.9 44.3 0 0
13:40 1024 30.24 853 25.19 30.7 87.3 17 3.4 38 0 0
13:41 1024 30.24 853 25.19 30.8 87.4 19 4.9 40.8 0 0
13:42 1024 30.24 853 25.19 30.8 87.5 17 2.9 37.3 0 0
13:43 1024 30.24 853 25.19 30.7 87.3 21 6.1 42.9 0 0
13:44 1024 30.24 853 25.19 30.7 87.3 19 4.9 40.9 0 0
13:45 1024 30.24 853 25.19 30.8 87.4 18 3.8 38.8 0 0
13:46 1024 30.24 853 25.19 30.9 87.7 20 5.9 42.6 0 0
13:47 1024 30.24 853 25.19 30.9 87.7 21 6.8 44.2 0 0
13:48 1024 30.24 853 25.19 30.9 87.6 20 5.6 42.1 0 0
13:49 1024 30.24 853 25.19 30.9 87.5 21 6.1 43 0 0
13:50 1024 30.24 853 25.19 31.1 88 19 4.8 40.6 0 0
13:51 1024 30.24 853 25.19 31.3 88.3 17 4.1 39.3 0 0
13:52 1024 30.24 853 25.19 31.3 88.4 16 3.1 37.6 0 0
13:53 1024 30.24 853 25.19 31.4 88.5 21 6.7 44.1 0 0
13:54 1024 30.24 853 25.19 31.5 88.7 19 5.3 41.5 0 0
13:55 1024 30.24 853 25.19 31.5 88.7 21 7 44.6 0 0
13:56 1024 30.24 853 25.19 31.5 88.7 19 5.8 42.5 0 0
13:57 1024 30.24 853 25.19 31.5 88.7 18 4.3 39.8 0 0
13:58 1024 30.24 853 25.19 31.5 88.7 17 3.8 38.9 0 0
13:59 1024 30.24 853 25.19 31.5 88.6 18 5.1 41.1 0 0
14:00 1024 30.24 853 25.19 31.5 88.7 20 6.2 43.1 0 0
14:01 1024 30.24 853 25.19 31.7 89 21 7.3 45.2 0 0
14:02 1024 30.24 853 25.19 31.8 89.3 21 6.9 44.4 0 0
14:03 1024 30.24 853 25.19 31.9 89.4 17 4 39.3 0 0
14:04 1024 30.24 853 25.19 31.9 89.5 19 5.6 42.1 0 0
14:05 1024 30.24 853 25.19 31.9 89.5 21 7.2 44.9 0 0
14:06 1024 30.24 853 25.19 32 89.5 18 5.2 41.3 0 0
14:07 1024 30.24 853 25.19 31.9 89.5 18 5.1 41.2 0 0
14:08 1024 30.24 853 25.19 31.9 89.4 21 7 44.7 0 0
14:09 1024 30.24 853 25.19 32 89.7 14 1.6 34.9 0 0
14:10 1024 30.24 853 25.19 32.1 89.8 17 4.7 40.4 0 0
14:11 1024 30.24 853 25.19 32.2 90 17 4.3 39.8 0 0
14:12 1024 30.24 853 25.19 32.3 90.1 16 4 39.2 0 0
14:13 1024 30.24 853 25.19 32.2 90 18 4.9 40.9 0 0
14:14 1024 30.24 853 25.19 32.3 90.1 17 4.4 39.9 0 0
14:15 1024 30.24 853 25.19 32.3 90.1 16 3.9 39 0 0
14:16 1024 30.24 853 25.19 32.2 90 14 1.7 35 0 0
14:17 1024 30.24 853 25.19 32.2 90 15 2.7 36.9 0 0
14:18 1024 30.24 853 25.19 32.2 89.9 14 1.9 35.4 0 0
14:19 1023 30.21 853 25.19 32.2 90 15 3.1 37.6 0 0
14:20 1023 30.21 853 25.19 32.3 90.2 16 3.5 38.2 0 0
14:21 1023 30.21 853 25.19 32.5 90.4 20 7.3 45.2 0 0
14:22 1023 30.21 853 25.19 32.6 90.6 17 4.9 40.8 0 0
14:23 1023 30.21 853 25.19 32.6 90.6 16 4.3 39.8 0 0
14:24 1023 30.21 853 25.19 32.6 90.6 16 4 39.2 0 0
14:25 1023 30.21 853 25.19 32.5 90.5 21 7.7 45.9 0 0
14:26 1023 30.21 853 25.19 32.5 90.5 14 1.9 35.5 0 0
14:27 1023 30.21 853 25.19 32.6 90.6 19 6 42.8 0 0
14:28 1023 30.21 853 25.19 32.7 90.8 14 1.9 35.5 0 0
14:29 1023 30.21 853 25.19 32.7 90.8 19 6.5 43.7 0 0
14:30 1023 30.21 853 25.19 32.7 90.9 17 5.1 41.2 0 0
14:31 1023 30.21 853 25.19 32.7 90.9 14 1.7 35 0 0
14:32 1023 30.21 853 25.19 32.9 91.1 16 4.5 40.1 0 0
14:33 1023 30.21 853 25.19 33.1 91.5 18 6.1 43 0 0
14:34 1023 30.21 853 25.19 33.2 91.7 14 3 37.4 0 0
14:35 1023 30.21 852 25.16 33.1 91.6 13 1.6 35 0 0
14:36 1023 30.21 852 25.16 33.1 91.6 14 2.7 36.8 0 0
14:37 1023 30.21 852 25.16 33.2 91.7 20 7.4 45.2 0 0
14:38 1023 30.21 852 25.16 33.3 91.9 15 3.1 37.7 0 0
14:39 1023 30.21 852 25.16 33.3 92 15 3.4 38 0 0
14:40 1023 30.21 852 25.16 33.3 91.9 14 3.1 37.5 0 0
14:41 1023 30.21 852 25.16 33.2 91.8 14 2.1 35.8 0 0
14:42 1023 30.21 852 25.16 33.2 91.8 13 1.1 33.9 0 0
14:43 1023 30.21 852 25.16 33.2 91.7 12 0.6 33.1 0 0
14:44 1023 30.21 852 25.16 33 91.5 12 0.5 32.9 0 0
14:45 1023 30.21 852 25.16 33 91.4 13 0.9 33.7 0 0
14:46 1023 30.21 852 25.16 33.1 91.6 13 1.2 34.2 0 0
14:47 1023 30.21 852 25.16 33.2 91.8 13 1.3 34.4 0 0
14:48 1023 30.21 852 25.16 33.1 91.6 13 1.1 33.9 0 0
14:49 1023 30.21 852 25.16 33 91.3 17 5.3 41.5 0 0
14:50 1023 30.21 852 25.16 33 91.3 14 1.9 35.3 0 0
14:51 1023 30.21 852 25.16 33 91.3 12 0.7 33.3 0 0
14:52 1023 30.21 852 25.16 33 91.5 14 2.2 36 0 0
14:53 1023 30.21 852 25.16 33.2 91.8 18 6.2 43.1 0 0
14:54 1023 30.21 852 25.16 33.3 92 14 2.6 36.6 0 0
14:55 1023 30.21 852 25.16 33.4 92.1 14 3 37.3 0 0
14:56 1023 30.21 852 25.16 33.3 92 18 5.9 42.7 0 0
14:57 1023 30.21 852 25.16 33.3 91.9 13 1.1 34 0 0
14:58 1023 30.21 852 25.16 33.3 91.9 15 3.4 38.1 0 0
14:59 1023 30.21 852 25.16 33.4 92 14 2.8 37.1 0 0
15:00 1023 30.21 852 25.16 33.4 92 13 1.6 34.8 0 0
15:01 1023 30.21 852 25.16 33.3 92 14 2.5 36.4 0 0
15:02 1023 30.21 852 25.16 33.4 92.1 14 2.5 36.4 0 0
15:03 1023 30.21 852 25.16 33.5 92.2 17 5.3 41.5 0 0
15:04 1023 30.21 852 25.16 33.5 92.2 16 4.9 40.8 0 0
15:05 1023 30.21 852 25.16 33.4 92.2 12 1.1 34 0 0
15:06 1023 30.21 852 25.16 33.4 92.1 13 2 35.6 0 0
15:07 1023 30.21 852 25.16 33.5 92.3 14 3 37.5 0 0
15:08 1023 30.21 852 25.16 33.6 92.5 13 1.4 34.6 0 0
15:09 1023 30.21 852 25.16 33.7 92.6 12 1.2 34.1 0 0
15:10 1023 30.21 852 25.16 33.6 92.4 14 3.3 37.9 0 0
15:11 1023 30.21 852 25.16 33.5 92.3 17 5.3 41.6 0 0
15:12 1023 30.21 852 25.16 33.4 92.2 17 5.7 42.2 0 0
15:13 1023 30.21 852 25.16 33.5 92.2 17 5.7 42.2 0 0
15:14 1023 30.21 852 25.16 33.4 92.2 16 4.3 39.7 0 0
15:15 1023 30.21 852 25.16 33.3 91.9 12 0.9 33.6 0 0
15:16 1023 30.21 852 25.16 33.1 91.5 13 1 33.8 0 0
15:17 1023 30.21 852 25.16 33 91.3 15 2.9 37.2 0 0
15:18 1023 30.21 852 25.16 32.8 91 13 0.8 33.4 0 0
15:19 1023 30.21 852 25.16 32.6 90.7 13 1 33.8 0 0
15:20 1023 30.21 852 25.16 32.5 90.4 14 1.5 34.8 0 0
15:21 1023 30.21 852 25.16 32.3 90.2 13 1.1 34 0 0
15:22 1023 30.21 852 25.16 32.3 90.1 14 1.7 35.1 0 0
15:23 1023 30.21 852 25.16 32.1 89.8 14 2 35.7 0 0
15:24 1023 30.21 852 25.16 32 89.6 12 -0.3 31.5 0 0
15:25 1023 30.21 852 25.16 32.1 89.7 14 1.8 35.3 0 0
15:26 1023 30.21 852 25.16 32 89.6 14 1.5 34.6 0 0
15:27 1023 30.21 852 25.16 32 89.6 17 4.2 39.5 0 0
15:28 1023 30.21 852 25.16 31.9 89.5 14 1.2 34.1 0 0
15:29 1023 30.21 852 25.16 31.9 89.5 15 2.8 37.1 0 0
15:30 1023 30.21 852 25.16 32 89.5 13 0.9 33.6 0 0
15:31 1023 30.21 852 25.16 32 89.5 19 6 42.7 0 0
15:32 1023 30.21 852 25.16 31.9 89.3 17 3.9 39 0 0
15:33 1023 30.21 852 25.16 31.8 89.3 15 2.1 35.8 0 0
15:34 1023 30.21 852 25.16 31.8 89.2 17 4.4 39.9 0 0
15:35 1023 30.21 852 25.16 31.7 89.1 18 5.2 41.3 0 0
15:36 1023 30.21 852 25.16 31.6 88.9 16 2.7 36.9 0 0
15:37 1023 30.21 852 25.16 31.6 88.9 15 2.5 36.5 0 0
15:38 1023 30.21 852 25.16 31.7 89 20 6.1 43 0 0
15:39 1023 30.21 852 25.16 31.7 89.1 14 1.7 35 0 0
15:40 1023 30.21 852 25.16 31.7 89.1 14 0.9 33.5 0 0
15:41 1023 30.21 852 25.16 31.9 89.3 14 1.9 35.4 0 0
15:42 1023 30.21 852 25.16 31.9 89.4 14 1.9 35.5 0 0
15:43 1023 30.21 852 25.16 31.8 89.3 16 3.5 38.3 0 0
15:44 1023 30.21 852 25.16 31.7 89.1 17 3.7 38.6 0 0
15:45 1023 30.21 852 25.16 31.7 89 19 5.3 41.5 0 0
15:46 1023 30.21 852 25.16 31.5 88.7 13 0.5 32.8 0 0
15:47 1023 30.21 852 25.16 31.6 88.8 15 2.1 35.8 0 0
15:48 1023 30.21 852 25.16 31.5 88.8 17 4 39.3 0 0
15:49 1023 30.21 852 25.16 31.4 88.6 16 3.3 37.9 0 0
15:50 1023 30.21 852 25.16 31.3 88.4 16 3.3 37.9 0 0
15:51 1023 30.21 852 25.16 31.2 88.1 18 4.1 39.3 0 0
15:52 1023 30.21 852 25.16 31 87.7 17 3.7 38.7 0 0
15:53 1023 30.21 852 25.16 30.9 87.7 16 2.9 37.2 0 0
15:54 1023 30.21 852 25.16 30.9 87.6 17 3.1 37.6 0 0
15:55 1023 30.21 852 25.16 30.9 87.7 17 3 37.4 0 0
15:56 1023 30.21 852 25.16 31 87.7 14 0.8 33.4 0 0
15:57 1023 30.21 852 25.16 31.1 88 16 3 37.4 0 0
15:58 1023 30.21 852 25.16 31.1 88 16 2.7 36.8 0 0
15:59 1023 30.21 852 25.16 31.1 87.9 14 1.1 34.1 0 0
16:00 1023 30.21 852 25.16 31.1 88 16 2.6 36.7 0 0
16:01 1023 30.21 852 25.16 31.1 88 16 2.6 36.7 0 0
16:02 1023 30.21 852 25.16 31 87.8 18 3.9 39 0 0
16:03 1023 30.21 852 25.16 31 87.7 15 1.6 34.9 0 0
16:04 1023 30.21 852 25.16 30.9 87.6 17 3 37.4 0 0
16:05 1023 30.21 852 25.16 30.8 87.5 23 7.5 45.6 0 0
16:06 1023 30.21 852 25.16 30.5 86.9 30 11.3 52.3 0 0
16:07 1023 30.21 852 25.16 29.7 85.4 32 11.5 52.6 0 0
16:08 1023 30.21 852 25.16 28.8 83.8 35 12.2 54 0 0
16:09 1023 30.21 852 25.16 28 82.4 25 6.2 43.2 0 0
16:10 1023 30.21 852 25.16 28 82.4 22 4.3 39.8 0 0
16:11 1023 30.21 852 25.16 28.3 82.9 22 4.7 40.5 0 0
16:12 1023 30.21 852 25.16 28.2 82.7 22 4.6 40.3 0 0
16:13 1023 30.21 852 25.16 28 82.5 20 3.1 37.5 0 0
16:14 1023 30.21 852 25.16 28.5 83.3 15 0.1 32.1 0 0
16:15 1023 30.21 852 25.16 29.2 84.6 18 3 37.5 0 0
16:16 1023 30.21 852 25.16 29.7 85.4 16 1.6 34.8 0 0
16:17 1023 30.21 852 25.16 30 86 18 3.7 38.7 0 0
16:18 1023 30.21 852 25.16 30 86 20 5.2 41.3 0 0
16:19 1023 30.21 852 25.16 29.9 85.7 17 2.8 37.1 0 0
16:20 1023 30.21 852 25.16 29.9 85.8 14 0.2 32.3 0 0
16:21 1023 30.21 852 25.16 30.1 86.2 16 2.1 35.8 0 0
16:22 1023 30.21 852 25.16 30.3 86.5 18 3.6 38.6 0 0
16:23 1023 30.21 852 25.16 30.1 86.1 17 2.9 37.3 0 0
16:24 1023 30.21 852 25.16 30 86 21 5.9 42.6 0 0
16:25 1023 30.21 852 25.16 29.7 85.5 21 5.7 42.3 0 0
16:26 1023 30.21 852 25.16 29.4 84.8 29 9.7 49.5 0 0
16:27 1023 30.21 852 25.16 28.9 84 25 7.5 45.4 0 0
16:28 1023 30.21 852 25.16 28.5 83.3 24 6.4 43.6 0 0
16:29 1023 30.21 852 25.16 28.3 82.9 27 7.7 45.8 0 0
16:30 1023 30.21 852 25.16 28.2 82.8 27 7.9 46.3 0 0
16:31 1023 30.21 852 25.16 28.3 82.9 27 7.8 46.1 0 0
16:32 1023 30.21 852 25.16 28.1 82.6 30 9.2 48.6 0 0
16:33 1023 30.21 852 25.16 27.8 82 33 10.2 50.3 0 0
16:34 1023 30.21 852 25.16 27.3 81.2 31 9.2 48.6 0 0
16:35 1023 30.21 852 25.16 27.3 81.2 25 5.8 42.4 0 0
16:36 1023 30.21 852 25.16 27.8 82 24 5.5 42 0 0
16:37 1023 30.21 852 25.16 28 82.5 24 5.9 42.6 0 0
16:38 1023 30.21 852 25.16 28.1 82.6 27 7.5 45.6 0 0
16:39 1023 30.21 852 25.16 28.1 82.7 26 7.1 44.7 0 0
16:40 1023 30.21 852 25.16 28.1 82.5 25 6.7 44 0 0
16:41 1023 30.21 852 25.16 28 82.3 27 7.8 46 0 0
16:42 1023 30.21 853 25.19 27.7 81.9 27 7.3 45.1 0 0
16:43 1023 30.21 853 25.19 27.6 81.7 23 4.8 40.6 0 0
16:44 1023 30.21 853 25.19 27.6 81.8 21 3.5 38.3 0 0
16:45 1023 30.21 853 25.19 27.9 82.1 20 3.4 38.1 0 0
16:46 1023 30.21 853 25.19 28.1 82.5 22 4.8 40.7 0 0
16:47 1023 30.21 853 25.19 28.4 83.1 23 5.6 42.1 0 0
16:48 1024 30.24 853 25.19 28.6 83.4 21 4.1 39.4 0 0
16:49 1024 30.24 853 25.19 28.5 83.4 22 4.9 40.8 0 0
16:50 1024 30.24 853 25.19 28.5 83.3 19 2.7 36.8 0 0
16:51 1024 30.24 853 25.19 28.7 83.7 18 2.5 36.5 0 0
16:52 1024 30.24 853 25.19 28.9 84 18 2.2 35.9 0 0
16:53 1024 30.24 853 25.19 29.1 84.4 20 4.2 39.5 0 0
16:54 1024 30.24 853 25.19 29 84.2 18 2.4 36.3 0 0
16:55 1023 30.21 853 25.19 29.1 84.3 18 2.8 37.1 0 0
16:56 1023 30.21 852 25.16 29.3 84.7 18 3 37.5 0 0
16:57 1023 30.21 852 25.16 29.4 85 17 1.9 35.5 0 0
16:58 1023 30.21 852 25.16 29.5 85.2 16 1.5 34.7 0 0
16:59 1023 30.21 852 25.16 29.6 85.3 18 3 37.5 0 0
17:00 1023 30.21 852 25.16 29.7 85.5 16 1.7 35.1 0 0
17:01 1023 30.21 852 25.16 29.9 85.7 17 2.4 36.2 0 0
17:02 1023 30.21 852 25.16 29.9 85.9 17 2.6 36.8 0 0
17:03 1023 30.21 852 25.16 29.8 85.7 18 3.2 37.7 0 0
17:04 1023 30.21 852 25.16 29.7 85.5 16 1.5 34.8 0 0
17:05 1023 30.21 852 25.16 29.9 85.8 18 3 37.4 0 0
17:06 1023 30.21 852 25.16 30 86 16 2 35.5 0 0
17:07 1023 30.21 852 25.16 30 86 16 1.7 35.1 0 0
17:08 1023 30.21 852 25.16 30 86.1 16 2.1 35.7 0 0
17:09 1023 30.21 852 25.16 30 86 16 2.1 35.7 0 0
17:10 1023 30.21 852 25.16 29.9 85.9 17 2.9 37.2 0 0
17:11 1023 30.21 852 25.16 29.8 85.7 17 2.9 37.2 0 0
17:12 1023 30.21 852 25.16 29.7 85.5 18 3.1 37.5 0 0
17:13 1023 30.21 852 25.16 29.6 85.4 18 3.2 37.7 0 0
17:14 1023 30.21 852 25.16 29.5 85.1 18 3.1 37.6 0 0
17:15 1023 30.21 852 25.16 29.4 84.8 18 2.5 36.6 0 0
17:16 1023 30.21 852 25.16 29.3 84.8 18 2.9 37.3 0 0
17:17 1023 30.21 852 25.16 29.3 84.7 18 2.8 37.1 0 0
17:18 1023 30.21 852 25.16 29.2 84.6 18 3 37.4 0 0
17:19 1023 30.21 852 25.16 29.2 84.6 18 2.4 36.4 0 0
17:20 1023 30.21 852 25.16 29.2 84.5 18 2.5 36.4 0 0
17:21 1023 30.21 853 25.19 29.3 84.7 18 2.6 36.6 0 0
17:22 1023 30.21 853 25.19 29.2 84.6 18 3 37.5 0 0
17:23 1023 30.21 853 25.19 29.2 84.5 18 2.4 36.4 0 0
17:24 1023 30.21 853 25.19 29.1 84.4 18 2.3 36.2 0 0
17:25 1023 30.21 853 25.19 29.2 84.5 17 1.9 35.5 0 0
17:26 1024 30.24 853 25.19 29.3 84.7 17 2.4 36.4 0 0
17:27 1024 30.24 853 25.19 29.3 84.8 17 2.3 36.2 0 0
17:28 1024 30.24 853 25.19 29.3 84.8 18 2.8 37.1 0 0
17:29 1024 30.24 853 25.19 29.3 84.7 19 3.6 38.5 0 0
17:30 1024 30.24 853 25.19 29.2 84.5 20 4.2 39.5 0 0
17:31 1024 30.24 854 25.22 29 84.2 17 1.6 35 0 0
17:32 1024 30.24 854 25.22 29.2 84.5 17 2.1 35.7 0 0
17:33 1024 30.24 854 25.22 29 84.1 24 7 44.6 0 0
17:34 1025 30.27 854 25.22 28.3 83 19 3 37.3 0 0
17:35 1024 30.24 854 25.22 28.6 83.4 19 3 37.4 0 0
17:36 1024 30.24 853 25.19 28.7 83.7 20 4 39.1 0 0
17:37 1024 30.24 853 25.19 28.6 83.4 20 3.5 38.3 0 0
17:38 1024 30.24 853 25.19 28.5 83.3 21 4.3 39.8 0 0
17:39 1024 30.24 853 25.19 28.6 83.5 17 1.5 34.6 0 0
17:40 1024 30.24 853 25.19 29 84.1 17 2.2 35.9 0 0
17:41 1024 30.24 853 25.19 29.1 84.3 17 1.9 35.4 0 0
17:42 1024 30.24 853 25.19 29.1 84.5 17 2.3 36.2 0 0
17:43 1024 30.24 853 25.19 29.1 84.4 17 1.9 35.5 0 0
17:44 1024 30.24 853 25.19 29.2 84.6 18 2.5 36.5 0 0
17:45 1024 30.24 853 25.19 29.3 84.7 17 2.3 36.2 0 0
17:46 1024 30.24 853 25.19 29.3 84.7 17 2.2 36 0 0
17:47 1024 30.24 853 25.19 29.3 84.7 17 2 35.7 0 0
17:48 1024 30.24 853 25.19 29.3 84.7 16 1.1 34 0 0
17:49 1024 30.24 853 25.19 29.5 85 16 0.9 33.7 0 0
17:50 1024 30.24 853 25.19 29.7 85.4 16 1.8 35.2 0 0
17:51 1024 30.24 853 25.19 29.8 85.7 18 3.2 37.8 0 0
17:52 1024 30.24 853 25.19 29.8 85.6 18 3.6 38.5 0 0
17:53 1024 30.24 853 25.19 29.6 85.2 20 4.4 39.9 0 0
17:54 1024 30.24 853 25.19 29.2 84.5 20 3.9 39 0 0
17:55 1024 30.24 853 25.19 28.9 83.9 22 5.1 41.2 0 0
17:56 1024 30.24 853 25.19 28.6 83.4 19 2.9 37.2 0 0
17:57 1024 30.24 853 25.19 28.5 83.3 19 3.3 38 0 0
17:58 1024 30.24 853 25.19 28.6 83.5 20 3.8 38.9 0 0
17:59 1024 30.24 853 25.19 28.6 83.5 22 5.2 41.4 0 0
18:00 1024 30.24 853 25.19 28.5 83.4 22 5 40.9 0 0
18:01 1024 30.24 853 25.19 28.4 83.1 24 5.9 42.7 0 0
18:02 1024 30.24 853 25.19 28.1 82.7 25 6.5 43.7 0 0
18:03 1024 30.24 853 25.19 28 82.4 23 5.4 41.7 0 0
18:04 1024 30.24 853 25.19 28 82.4 25 6.3 43.4 0 0
18:05 1024 30.24 853 25.19 28 82.3 25 6.6 43.9 0 0
18:06 1024 30.24 853 25.19 27.8 82.1 26 7 44.6 0 0
18:07 1024 30.24 853 25.19 27.7 81.8 26 7 44.5 0 0
18:08 1024 30.24 853 25.19 27.6 81.7 26 6.9 44.4 0 0
18:09 1024 30.24 853 25.19 27.5 81.6 27 7.3 45.1 0 0
18:10 1024 30.24 853 25.19 27.5 81.5 27 7.1 44.7 0 0
18:11 1024 30.24 853 25.19 27.5 81.6 22 4.5 40.1 0 0
18:12 1024 30.24 853 25.19 27.7 81.9 23 5.1 41.2 0 0
18:13 1024 30.24 853 25.19 27.9 82.2 20 3 37.4 0 0
18:14 1024 30.24 853 25.19 28.2 82.8 20 3.4 38.1 0 0
18:15 1024 30.24 853 25.19 28.4 83.1 20 3.4 38 0 0
18:16 1024 30.24 853 25.19 28.5 83.2 22 4.7 40.5 0 0
18:17 1024 30.24 853 25.19 28.4 83.2 21 4.6 40.3 0 0
18:18 1024 30.24 853 25.19 28.3 83 23 5.3 41.5 0 0
18:19 1024 30.24 853 25.19 28.2 82.8 23 5.4 41.7 0 0
18:20 1024 30.24 853 25.19 28.1 82.6 23 5.5 41.9 0 0
18:21 1024 30.24 853 25.19 28.1 82.5 24 6.2 43.1 0 0
18:22 1024 30.24 853 25.19 28 82.3 25 6.3 43.3 0 0
18:23 1024 30.24 853 25.19 27.9 82.1 26 6.8 44.2 0 0
18:24 1024 30.24 853 25.19 27.7 81.9 27 7.2 45 0 0
18:25 1024 30.24 853 25.19 27.5 81.6 28 7.9 46.2 0 0
18:26 1024 30.24 853 25.19 27.4 81.2 29 8.1 46.6 0 0
18:27 1024 30.24 853 25.19 27.2 80.9 30 8.2 46.8 0 0
18:28 1024 30.24 853 25.19 26.9 80.5 30 8 46.4 0 0
18:29 1024 30.24 853 25.19 26.9 80.4 30 8 46.4 0 0
18:30 1024 30.24 853 25.19 26.9 80.5 27 6.7 44.1 0 0
18:31 1024 30.24 853 25.19 26.9 80.5 26 6.1 43 0 0
18:32 1024 30.24 853 25.19 27.1 80.8 26 6.2 43.2 0 0
18:33 1024 30.24 853 25.19 27.2 80.9 26 6.2 43.2 0 0
18:34 1024 30.24 853 25.19 27.2 81 27 6.8 44.3 0 0
18:35 1024 30.24 853 25.19 27.2 81 27 6.7 44.1 0 0
18:36 1024 30.24 853 25.19 27.1 80.9 25 5.8 42.4 0 0
18:37 1024 30.24 853 25.19 27.2 80.9 25 5.6 42.1 0 0
18:38 1024 30.24 853 25.19 27.2 81 25 6 42.9 0 0
18:39 1024 30.24 853 25.19 27.3 81.1 24 5.3 41.5 0 0
18:40 1024 30.24 853 25.19 27.4 81.2 24 5.6 42 0 0
18:41 1024 30.24 853 25.19 27.4 81.3 25 5.7 42.3 0 0
18:42 1024 30.24 853 25.19 27.4 81.3 25 6.1 42.9 0 0
18:43 1024 30.24 853 25.19 27.4 81.4 26 6.4 43.5 0 0
18:44 1024 30.24 853 25.19 27.4 81.4 25 5.9 42.7 0 0
18:45 1024 30.24 853 25.19 27.4 81.4 25 5.9 42.6 0 0
18:46 1024 30.24 853 25.19 27.4 81.4 26 6.4 43.6 0 0
18:47 1024 30.24 853 25.19 27.5 81.4 27 7.3 45.1 0 0
18:48 1024 30.24 853 25.19 27.5 81.4 24 5.3 41.6 0 0
18:49 1024 30.24 853 25.19 27.6 81.6 26 6.8 44.2 0 0
18:50 1024 30.24 853 25.19 27.6 81.8 25 6.4 43.5 0 0
18:51 1024 30.24 853 25.19 27.6 81.7 24 5.6 42 0 0
18:52 1024 30.24 853 25.19 27.6 81.8 25 6 42.8 0 0
18:53 1024 30.24 853 25.19 27.7 81.9 26 6.6 43.8 0 0
18:54 1024 30.24 853 25.19 27.7 81.9 28 7.6 45.7 0 0
18:55 1024 30.24 853 25.19 27.7 81.9 31 9.3 48.8 0 0
18:56 1024 30.24 853 25.19 27.7 81.8 28 7.6 45.6 0 0
18:57 1024 30.24 853 25.19 27.5 81.5 27 7.2 44.9 0 0
18:58 1024 30.24 853 25.19 27.5 81.4 28 7.6 45.7 0 0
18:59 1024 30.24 853 25.19 27.4 81.3 28 7.5 45.4 0 0
19:00 1024 30.24 853 25.19 27.4 81.3 29 7.9 46.2 0 0
19:01 1024 30.24 853 25.19 27.4 81.2 29 8 46.5 0 0
19:02 1024 30.24 853 25.19 27.4 81.3 29 8.1 46.5 0 0
19:03 1024 30.24 853 25.19 27.4 81.3 29 8.2 46.7 0 0
19:04 1024 30.24 853 25.19 27.4 81.3 29 8.2 46.7 0 0
19:05 1024 30.24 853 25.19 27.4 81.3 29 8 46.4 0 0
19:06 1024 30.24 853 25.19 27.4 81.3 28 7.8 46 0 0
19:07 1024 30.24 853 25.19 27.4 81.3 29 8.3 47 0 0
19:08 1024 30.24 853 25.19 27.4 81.3 29 8.3 46.9 0 0
19:09 1024 30.24 853 25.19 27.4 81.2 31 9.1 48.5 0 0
19:10 1024 30.24 853 25.19 27.3 81.1 31 8.9 48 0 0
19:11 1024 30.24 853 25.19 27.2 80.9 32 9.5 49.1 0 0
19:12 1024 30.24 853 25.19 27.1 80.7 33 9.9 49.8 0 0
19:13 1024 30.24 853 25.19 26.9 80.4 39 12.1 53.8 0 0
19:14 1024 30.24 853 25.19 26.6 79.9 40 12.3 54.1 0 0
19:15 1024 30.24 853 25.19 26.3 79.4 42 12.5 54.5 0 0
19:16 1024 30.24 853 25.19 26 78.8 42 12.5 54.4 0 0
19:17 1024 30.24 853 25.19 25.8 78.4 41 11.9 53.4 0 0
19:18 1024 30.24 853 25.19 25.5 77.9 43 12.1 53.7 0 0
19:19 1024 30.24 853 25.19 25.2 77.4 43 12.1 53.8 0 0
19:20 1024 30.24 853 25.19 25 77 46 12.9 55.2 0 0
19:21 1024 30.24 853 25.19 24.8 76.7 44 11.8 53.2 0 0
19:22 1024 30.24 853 25.19 24.8 76.6 43 11.5 52.8 0 0
19:23 1024 30.24 853 25.19 24.7 76.5 43 11.6 52.9 0 0
19:24 1024 30.24 853 25.19 24.7 76.5 45 12.3 54.2 0 0
19:25 1024 30.24 853 25.19 24.6 76.3 43 11.5 52.8 0 0
19:26 1024 30.24 853 25.19 24.5 76.1 43 11.2 52.1 0 0
19:27 1024 30.24 853 25.19 24.4 75.9 42 10.7 51.3 0 0
19:28 1024 30.24 853 25.19 24.3 75.8 43 11.1 52 0 0
19:29 1024 30.24 853 25.19 24.2 75.5 44 11.3 52.4 0 0
19:30 1024 30.24 853 25.19 24 75.1 44 11.2 52.1 0 0
19:31 1024 30.24 853 25.19 23.8 74.8 42 10.2 50.3 0 0
19:32 1024 30.24 853 25.19 23.7 74.6 41 10 49.9 0 0
19:33 1024 30.24 853 25.19 23.7 74.7 40 9.7 49.4 0 0
19:34 1024 30.24 853 25.19 23.7 74.6 41 9.8 49.7 0 0
19:35 1024 30.24 853 25.19 23.7 74.6 42 10.2 50.4 0 0
19:36 1024 30.24 853 25.19 23.6 74.4 42 10 49.9 0 0
19:37 1024 30.24 853 25.19 23.5 74.2 43 10.2 50.4 0 0
19:38 1024 30.24 853 25.19 23.4 74.1 42 10 49.9 0 0
19:39 1024 30.24 853 25.19 23.3 74 42 9.8 49.7 0 0
19:40 1024 30.24 853 25.19 23.3 73.9 42 9.8 49.7 0 0
19:41 1024 30.24 853 25.19 23.2 73.8 41 9.6 49.3 0 0
19:42 1024 30.24 853 25.19 23.2 73.8 40 9 48.3 0 0
19:43 1024 30.24 853 25.19 23.3 73.9 40 9 48.2 0 0
19:44 1024 30.24 853 25.19 23.3 73.9 40 9.3 48.7 0 0
19:45 1024 30.24 853 25.19 23.3 73.9 41 9.5 49 0 0
19:46 1024 30.24 853 25.19 23.2 73.8 40 9 48.1 0 0
19:47 1024 30.24 853 25.19 23.2 73.8 41 9.2 48.6 0 0
19:48 1024 30.24 853 25.19 23.2 73.7 40 9 48.3 0 0
19:49 1024 30.24 853 25.19 23.1 73.6 44 10.3 50.5 0 0
19:50 1024 30.24 853 25.19 22.9 73.2 45 10.4 50.8 0 0
19:51 1024 30.24 853 25.19 22.7 72.8 46 10.5 50.9 0 0
19:52 1024 30.24 853 25.19 22.5 72.5 46 10.6 51.1 0 0
19:53 1024 30.24 853 25.19 22.4 72.2 47 10.6 51 0 0
19:54 1024 30.24 853 25.19 22.2 72 46 10.2 50.3 0 0
19:55 1024 30.24 853 25.19 22.2 71.9 43 9.2 48.6 0 0
19:56 1024 30.24 853 25.19 22.3 72.2 43 9.2 48.6 0 0
19:57 1024 30.24 853 25.19 22.4 72.3 43 9.3 48.8 0 0
19:58 1024 30.24 853 25.19 22.4 72.4 44 9.7 49.4 0 0
19:59 1024 30.24 853 25.19 22.4 72.3 44 9.8 49.7 0 0
20:00 1024 30.24 853 25.19 22.3 72.1 44 9.5 49.2 0 0
20:01 1024 30.24 853 25.19 22.2 71.9 44 9.4 48.8 0 0
20:02 1024 30.24 853 25.19 22.1 71.8 43 9.3 48.7 0 0
20:03 1024 30.24 853 25.19 22.1 71.7 45 9.7 49.4 0 0
20:04 1024 30.24 853 25.19 21.9 71.4 45 9.6 49.3 0 0
20:05 1024 30.24 853 25.19 21.8 71.3 47 10.1 50.1 0 0
20:06 1024 30.24 853 25.19 21.7 71.1 47 10.1 50.2 0 0
20:07 1024 30.24 853 25.19 21.6 70.9 47 9.9 49.8 0 0
20:08 1024 30.24 853 25.19 21.5 70.7 47 10 50 0 0
20:09 1024 30.24 853 25.19 21.5 70.6 47 9.8 49.6 0 0
20:10 1024 30.24 853 25.19 21.5 70.7 47 9.8 49.6 0 0
20:11 1024 30.24 853 25.19 21.5 70.7 46 9.5 49 0 0
20:12 1024 30.24 853 25.19 21.4 70.6 47 9.8 49.7 0 0
20:13 1024 30.24 853 25.19 21.4 70.4 48 9.9 49.9 0 0
20:14 1024 30.24 853 25.19 21.3 70.3 48 9.9 49.8 0 0
20:15 1024 30.24 853 25.19 21.2 70.1 47 9.7 49.4 0 0
20:16 1024 30.24 853 25.19 21.2 70.1 47 9.7 49.4 0 0
20:17 1024 30.24 853 25.19 21.2 70.1 47 9.5 49.2 0 0
20:18 1024 30.24 853 25.19 21.2 70.1 49 10.1 50.1 0 0
20:19 1024 30.24 853 25.19 21.1 69.9 48 9.9 49.8 0 0
20:20 1024 30.24 853 25.19 20.9 69.6 48 9.8 49.6 0 0
20:21 1024 30.24 853 25.19 20.8 69.5 48 9.6 49.3 0 0
20:22 1024 30.24 853 25.19 20.8 69.5 47 9.4 48.9 0 0
20:23 1024 30.24 853 25.19 20.9 69.6 45 8.8 47.8 0 0
20:24 1024 30.24 853 25.19 21.1 69.9 44 8.6 47.5 0 0
20:25 1024 30.24 853 25.19 21.2 70.2 45 8.8 47.9 0 0
20:26 1024 30.24 853 25.19 21.3 70.3 45 9.1 48.4 0 0
20:27 1024 30.24 853 25.19 21.2 70.2 45 9 48.2 0 0
20:28 1024 30.24 853 25.19 21.2 70.1 46 9.2 48.5 0 0
20:29 1024 30.24 853 25.19 21.1 70 46 9.2 48.5 0 0
20:30 1024 30.24 853 25.19 21 69.9 46 9.2 48.6 0 0
20:31 1024 30.24 853 25.19 21 69.8 46 9 48.3 0 0
20:32 1024 30.24 853 25.19 20.9 69.7 47 9.4 48.8 0 0
20:33 1024 30.24 853 25.19 20.8 69.5 47 9.3 48.8 0 0
20:34 1024 30.24 853 25.19 20.8 69.4 46 9 48.2 0 0
20:35 1024 30.24 853 25.19 20.8 69.4 44 8.4 47.1 0 0
20:36 1024 30.24 853 25.19 20.9 69.7 45 8.8 47.8 0 0
20:37 1024 30.24 853 25.19 21 69.9 45 8.8 47.8 0 0
20:38 1024 30.24 853 25.19 21.1 69.9 45 9 48.1 0 0
20:39 1024 30.24 853 25.19 21 69.8 46 9 48.3 0 0
20:40 1024 30.24 853 25.19 20.9 69.7 45 8.8 47.9 0 0
20:41 1024 30.24 853 25.19 20.9 69.6 46 9 48.2 0 0
20:42 1024 30.24 853 25.19 20.8 69.4 46 8.7 47.7 0 0
20:43 1024 30.24 853 25.19 20.7 69.3 46 8.9 48.1 0 0
20:44 1024 30.24 853 25.19 20.6 69.1 46 8.7 47.7 0 0
20:45 1024 30.24 853 25.19 20.7 69.2 46 8.8 47.8 0 0
20:46 1024 30.24 853 25.19 20.7 69.2 45 8.4 47.2 0 0
20:47 1024 30.24 853 25.19 20.7 69.3 45 8.5 47.2 0 0
20:48 1024 30.24 853 25.19 20.8 69.4 44 8.3 46.9 0 0
20:49 1024 30.24 853 25.19 20.9 69.6 44 8.5 47.3 0 0
20:50 1024 30.24 853 25.19 20.9 69.6 46 9 48.1 0 0
20:51 1024 30.24 853 25.19 20.8 69.4 50 10.1 50.2 0 0
20:52 1024 30.24 853 25.19 20.5 68.8 51 10.2 50.3 0 0
20:53 1024 30.24 853 25.19 20.2 68.3 53 10.5 51 0 0
20:54 1024 30.24 853 25.19 19.9 67.9 53 10.3 50.5 0 0
20:55 1024 30.24 853 25.19 19.8 67.6 52 9.9 49.8 0 0
20:56 1024 30.24 853 25.19 19.8 67.6 52 9.7 49.5 0 0
20:57 1024 30.24 853 25.19 19.8 67.7 51 9.6 49.3 0 0
20:58 1024 30.24 853 25.19 19.9 67.7 51 9.5 49.1 0 0
20:59 1024 30.24 853 25.19 19.9 67.8 50 9.3 48.8 0 0
21:00 1024 30.24 853 25.19 20 68 50 9.3 48.7 0 0
21:01 1024 30.24 853 25.19 20.1 68.2 49 9.1 48.4 0 0
21:02 1024 30.24 853 25.19 20.2 68.3 48 9 48.1 0 0
21:03 1024 30.24 853 25.19 20.3 68.6 48 9 48.2 0 0
21:04 1024 30.24 854 25.22 20.4 68.7 47 9 48.2 0 0
21:05 1024 30.24 854 25.22 20.5 68.8 48 9.3 48.7 0 0
21:06 1024 30.24 854 25.22 20.5 68.8 48 9.2 48.5 0 0
21:07 1024 30.24 854 25.22 20.4 68.8 47 8.8 47.9 0 0
21:08 1024 30.24 854 25.22 20.4 68.8 48 9.1 48.3 0 0
21:09 1024 30.24 854 25.22 20.4 68.7 46 8.7 47.7 0 0
21:10 1024 30.24 854 25.22 20.5 68.8 45 8.2 46.8 0 0
21:11 1024 30.24 854 25.22 20.6 69.1 45 8.3 47 0 0
21:12 1024 30.24 854 25.22 20.7 69.3 45 8.4 47.1 0 0
21:13 1024 30.24 854 25.22 20.7 69.3 45 8.4 47.2 0 0
21:14 1024 30.24 854 25.22 20.8 69.4 45 8.5 47.3 0 0
21:15 1024 30.24 854 25.22 20.7 69.3 45 8.6 47.4 0 0
21:16 1024 30.24 854 25.22 20.7 69.3 45 8.4 47.1 0 0
21:17 1024 30.24 854 25.22 20.7 69.3 45 8.6 47.5 0 0
21:18 1024 30.24 854 25.22 20.7 69.3 45 8.4 47.2 0 0
21:19 1024 30.24 854 25.22 20.7 69.3 45 8.4 47.2 0 0
21:20 1024 30.24 853 25.19 20.8 69.4 45 8.7 47.6 0 0
21:21 1024 30.24 853 25.19 20.7 69.2 44 8.3 46.9 0 0
21:22 1024 30.24 853 25.19 20.8 69.5 42 7.7 45.9 0 0
21:23 1024 30.24 853 25.19 21 69.8 41 7.4 45.3 0 0
21:24 1024 30.24 853 25.19 21.2 70.1 40 7.3 45.1 0 0
21:25 1024 30.24 853 25.19 21.3 70.4 41 7.7 45.8 0 0
21:26 1024 30.24 853 25.19 21.4 70.4 41 7.8 46 0 0
21:27 1024 30.24 853 25.19 21.4 70.4 42 8 46.3 0 0
21:28 1024 30.24 853 25.19 21.3 70.4 42 8.2 46.7 0 0
21:29 1024 30.24 853 25.19 21.3 70.3 43 8.2 46.8 0 0
21:30 1024 30.24 853 25.19 21.2 70.2 42 8 46.3 0 0
21:31 1024 30.24 854 25.22 21.2 70.2 42 7.9 46.3 0 0
21:32 1024 30.24 854 25.22 21.2 70.2 44 8.6 47.4 0 0
21:33 1024 30.24 854 25.22 21.1 70.1 45 8.8 47.9 0 0
21:34 1024 30.24 854 25.22 20.9 69.7 43 8.2 46.7 0 0
21:35 1024 30.24 854 25.22 20.9 69.5 45 8.8 47.8 0 0
21:36 1024 30.24 853 25.19 20.7 69.3 47 9 48.2 0 0
21:37 1024 30.24 853 25.19 20.6 69 46 8.7 47.6 0 0
21:38 1024 30.24 853 25.19 20.5 68.9 46 8.5 47.4 0 0
21:39 1024 30.24 853 25.19 20.6 69 46 8.7 47.7 0 0
21:40 1024 30.24 853 25.19 20.5 68.9 46 8.6 47.4 0 0
21:41 1024 30.24 853 25.19 20.5 68.8 45 8.2 46.8 0 0
21:42 1024 30.24 853 25.19 20.7 69.2 43 7.9 46.2 0 0
21:43 1024 30.24 853 25.19 21 69.7 43 8.1 46.6 0 0
21:44 1024 30.24 853 25.19 21.2 70.1 43 8.2 46.8 0 0
21:45 1024 30.24 853 25.19 21.3 70.4 43 8.3 46.9 0 0
21:46 1024 30.24 853 25.19 21.4 70.6 42 8.3 46.9 0 0
21:47 1024 30.24 853 25.19 21.5 70.7 42 8.2 46.7 0 0
21:48 1024 30.24 853 25.19 21.5 70.7 42 8.4 47.1 0 0
21:49 1024 30.24 853 25.19 21.5 70.7 43 8.6 47.5 0 0
21:50 1024 30.24 853 25.19 21.4 70.5 43 8.6 47.4 0 0
21:51 1024 30.24 853 25.19 21.3 70.4 44 8.6 47.6 0 0
21:52 1024 30.24 853 25.19 21.3 70.3 44 8.6 47.4 0 0
21:53 1024 30.24 853 25.19 21.2 70.2 43 8.5 47.2 0 0
21:54 1024 30.24 853 25.19 21.2 70.2 42 8 46.4 0 0
21:55 1024 30.24 853 25.19 21.3 70.3 42 7.9 46.3 0 0
21:56 1024 30.24 853 25.19 21.4 70.6 41 7.9 46.2 0 0
21:57 1024 30.24 853 25.19 21.6 70.8 41 7.8 46 0 0
21:58 1024 30.24 853 25.19 21.7 71 40 7.6 45.6 0 0
21:59 1024 30.24 853 25.19 21.7 71 40 7.6 45.7 0 0
22:00 1024 30.24 853 25.19 21.8 71.2 40 7.6 45.7 0 0
22:01 1024 30.24 853 25.19 21.7 71.1 41 8.1 46.7 0 0
22:02 1024 30.24 853 25.19 21.5 70.8 42 8.4 47.1 0 0
22:03 1024 30.24 853 25.19 21.3 70.3 44 8.8 47.8 0 0
22:04 1024 30.24 853 25.19 21.1 70 43 8.3 47 0 0
22:05 1024 30.24 853 25.19 21 69.9 43 8.1 46.7 0 0
22:06 1024 30.24 853 25.19 21.1 69.9 43 8.1 46.7 0 0
22:07 1024 30.24 853 25.19 21 69.9 42 7.8 46.1 0 0
22:08 1024 30.24 853 25.19 21.1 69.9 41 7.4 45.2 0 0
22:09 1024 30.24 854 25.22 21.2 70.1 41 7.7 45.8 0 0
22:10 1024 30.24 854 25.22 21.3 70.3 41 7.7 45.9 0 0
22:11 1024 30.24 854 25.22 21.2 70.2 41 7.7 45.9 0 0
22:12 1024 30.24 854 25.22 21.2 70.2 42 8 46.3 0 0
22:13 1024 30.24 854 25.22 21.2 70.1 42 7.8 46 0 0
22:14 1024 30.24 854 25.22 21.2 70.2 41 7.7 45.8 0 0
22:15 1025 30.27 854 25.22 21.2 70.2 41 7.7 45.9 0 0
22:16 1025 30.27 854 25.22 21.3 70.3 41 7.5 45.6 0 0
22:17 1025 30.27 854 25.22 21.3 70.3 39 7.1 44.8 0 0
22:18 1025 30.27 854 25.22 21.5 70.7 37 6.5 43.8 0 0
22:19 1025 30.27 854 25.22 21.8 71.3 37 6.6 43.9 0 0
22:20 1025 30.27 854 25.22 22 71.7 37 6.9 44.4 0 0
22:21 1025 30.27 854 25.22 22.1 71.8 37 6.8 44.3 0 0
22:22 1025 30.27 854 25.22 22.1 71.8 37 6.9 44.4 0 0
22:23 1025 30.27 854 25.22 22.1 71.7 37 7 44.5 0 0
22:24 1025 30.27 854 25.22 22.1 71.7 37 7.1 44.7 0 0
22:25 1025 30.27 854 25.22 22 71.6 38 7.1 44.7 0 0
22:26 1025 30.27 854 25.22 21.9 71.5 38 7 44.7 0 0
22:27 1025 30.27 854 25.22 21.9 71.4 38 7 44.6 0 0
22:28 1025 30.27 854 25.22 21.9 71.4 37 6.6 43.8 0 0
22:29 1025 30.27 854 25.22 21.9 71.5 35 6.1 42.9 0 0
22:30 1025 30.27 854 25.22 22.1 71.8 34 5.6 42.1 0 0
22:31 1025 30.27 854 25.22 22.4 72.3 33 5.4 41.7 0 0
22:32 1025 30.27 854 25.22 22.6 72.7 32 5.4 41.6 0 0
22:33 1025 30.27 854 25.22 22.8 73.1 32 5.4 41.7 0 0
22:34 1025 30.27 854 25.22 23 73.4 32 5.6 42 0 0
22:35 1025 30.27 854 25.22 23 73.4 32 5.8 42.5 0 0
22:36 1025 30.27 854 25.22 23 73.3 33 5.9 42.6 0 0
22:37 1025 30.27 854 25.22 22.9 73.2 32 5.8 42.4 0 0
22:38 1025 30.27 854 25.22 22.9 73.1 33 6.1 43 0 0
22:39 1025 30.27 854 25.22 22.7 72.9 35 6.5 43.6 0 0
22:40 1025 30.27 854 25.22 22.5 72.5 35 6.4 43.4 0 0
22:41 1025 30.27 854 25.22 22.4 72.3 36 6.6 43.9 0 0
22:42 1025 30.27 854 25.22 22.3 72.1 35 6.3 43.3 0 0
22:43 1025 30.27 854 25.22 22.2 71.9 36 6.4 43.6 0 0
22:44 1025 30.27 854 25.22 22.1 71.8 36 6.3 43.4 0 0
22:45 1025 30.27 854 25.22 22.1 71.8 36 6.3 43.4 0 0
22:46 1025 30.27 854 25.22 22.1 71.7 35 6.3 43.3 0 0
22:47 1025 30.27 854 25.22 22.1 71.7 35 6.1 43.1 0 0
22:48 1025 30.27 854 25.22 22.1 71.9 35 6.1 42.9 0 0
22:49 1025 30.27 854 25.22 22.2 72 34 6 42.8 0 0
22:50 1025 30.27 854 25.22 22.3 72.1 34 5.8 42.5 0 0
22:51 1025 30.27 854 25.22 22.3 72.2 34 5.9 42.7 0 0
22:52 1025 30.27 854 25.22 22.3 72.2 35 6.5 43.7 0 0
22:53 1025 30.27 854 25.22 22.2 72 37 6.8 44.3 0 0
22:54 1025 30.27 854 25.22 22.1 71.9 35 6 42.9 0 0
22:55 1025 30.27 854 25.22 22.2 71.9 35 6.3 43.4 0 0
22:56 1025 30.27 854 25.22 22.2 72 36 6.6 43.9 0 0
22:57 1025 30.27 854 25.22 22.2 71.9 35 6.3 43.4 0 0
22:58 1025 30.27 854 25.22 22.1 71.9 35 6.2 43.2 0 0
22:59 1025 30.27 854 25.22 22.2 71.9 35 6.3 43.3 0 0
23:00 1025 30.27 854 25.22 22.2 72 36 6.5 43.7 0 0
23:01 1025 30.27 854 25.22 22.2 72 35 6.4 43.5 0 0
23:02 1025 30.27 854 25.22 22.2 71.9 36 6.6 43.8 0 0
23:03 1025 30.27 854 25.22 22.2 71.9 38 7.3 45.1 0 0
23:04 1025 30.27 854 25.22 22 71.6 39 7.7 45.9 0 0
23:05 1025 30.27 854 25.22 21.7 71.1 41 7.9 46.3 0 0
23:06 1025 30.27 854 25.22 21.4 70.6 42 8 46.5 0 0
23:07 1025 30.27 854 25.22 21.3 70.3 41 7.5 45.4 0 0
23:08 1025 30.27 854 25.22 21.2 70.1 41 7.5 45.4 0 0
23:09 1025 30.27 854 25.22 21.2 70.1 41 7.5 45.5 0 0
23:10 1025 30.27 854 25.22 21.2 70.2 41 7.6 45.7 0 0
23:11 1025 30.27 854 25.22 21.2 70.1 42 7.7 45.9 0 0
23:12 1025 30.27 854 25.22 21.1 70 41 7.5 45.6 0 0
23:13 1025 30.27 854 25.22 21 69.9 41 7.3 45.1 0 0
23:14 1025 30.27 854 25.22 21 69.8 40 7.1 44.7 0 0
23:15 1025 30.27 854 25.22 21.1 69.9 40 7.3 45.1 0 0
23:16 1025 30.27 854 25.22 21.1 70 41 7.4 45.3 0 0
23:17 1025 30.27 854 25.22 21.1 69.9 39 6.9 44.4 0 0
23:18 1025 30.27 854 25.22 21.2 70.2 37 6.1 43.1 0 0
23:19 1025 30.27 854 25.22 21.4 70.6 36 5.8 42.5 0 0
23:20 1025 30.27 854 25.22 21.8 71.2 34 5.3 41.5 0 0
23:21 1025 30.27 854 25.22 22 71.6 34 5.8 42.4 0 0
23:22 1025 30.27 854 25.22 22.2 72 35 6.3 43.3 0 0
23:23 1025 30.27 854 25.22 22.1 71.8 37 7 44.7 0 0
23:24 1025 30.27 854 25.22 21.9 71.5 39 7.5 45.5 0 0
23:25 1025 30.27 854 25.22 21.6 70.9 40 7.6 45.6 0 0
23:26 1025 30.27 854 25.22 21.4 70.6 40 7.5 45.5 0 0
23:27 1025 30.27 854 25.22 21.3 70.3 41 7.8 46.1 0 0
23:28 1025 30.27 854 25.22 21.1 69.9 42 8 46.3 0 0
23:29 1025 30.27 854 25.22 20.8 69.5 43 7.9 46.2 0 0
23:30 1025 30.27 854 25.22 20.6 69.2 43 7.9 46.2 0 0
23:31 1025 30.27 854 25.22 20.5 68.9 44 7.9 46.3 0 0
23:32 1025 30.27 854 25.22 20.4 68.7 44 7.9 46.1 0 0
23:33 1025 30.27 854 25.22 20.4 68.6 44 7.8 46 0 0
23:34 1025 30.27 854 25.22 20.4 68.6 41 7 44.6 0 0
23:35 1025 30.27 854 25.22 20.5 68.8 41 7 44.7 0 0
23:36 1025 30.27 854 25.22 20.6 69.1 42 7.6 45.6 0 0
23:37 1025 30.27 854 25.22 20.7 69.2 43 7.6 45.7 0 0
23:38 1025 30.27 854 25.22 20.6 69.1 42 7.5 45.4 0 0
23:39 1025 30.27 854 25.22 20.6 69 42 7.5 45.4 0 0
23:40 1025 30.27 854 25.22 20.6 69 42 7.4 45.4 0 0
23:41 1025 30.27 854 25.22 20.6 69.1 42 7.5 45.4 0 0
23:42 1025 30.27 854 25.22 20.6 69 43 7.6 45.6 0 0
23:43 1025 30.27 854 25.22 20.6 69 42 7.5 45.5 0 0
23:44 1025 30.27 854 25.22 20.6 69 42 7.5 45.4 0 0
23:45 1025 30.27 854 25.22 20.5 68.9 43 7.5 45.5 0 0
23:46 1025 30.27 854 25.22 20.5 68.9 43 7.6 45.7 0 0
23:47 1025 30.27 854 25.22 20.4 68.8 44 7.8 46 0 0
23:48 1025 30.27 854 25.22 20.4 68.6 44 7.8 46 0 0
23:49 1025 30.27 854 25.22 20.3 68.5 44 7.7 45.8 0 0
23:50 1025 30.27 854 25.22 20.3 68.5 44 7.8 46 0 0
23:51 1025 30.27 854 25.22 20.2 68.4 44 7.7 45.9 0 0
23:52 1025 30.27 854 25.22 20.2 68.4 45 8 46.3 0 0
23:53 1025 30.27 854 25.22 20.2 68.3 44 7.7 45.9 0 0
23:54 1025 30.27 854 25.22 20.2 68.4 44 7.7 45.9 0 0
23:55 1025 30.27 854 25.22 20.2 68.3 41 6.8 44.2 0 0
23:56 1025 30.27 854 25.22 20.3 68.6 42 7.1 44.8 0 0
23:57 1025 30.27 854 25.22 20.4 68.8 41 7 44.6 0 0
23:58 1025 30.27 854 25.22 20.5 68.8 41 6.9 44.5 0 0
23:59 1025 30.27 854 25.22 20.5 68.9 41 7 44.7 0 0
24:00 1025 30.27 854 25.22 20.5 68.9 41 7.1 44.8 0 0